<?xml version="1.0" encoding="UTF-8" standalone="no" ?>
<gpx xmlns="http://www.topografix.com/GPX/1/1" xmlns:xsi="http://www.w3.org/2001/XMLSchema-instance" xsi:schemaLocation="http://www.topografix.com/GPX/1/1 http://www.topografix.com/GPX/1/1/gpx.xsd" version="1.1" creator="VisuGPX - https://www.visugpx.com">
  <metadata>
    <name>VTT - Jouques</name>
    <desc><![CDATA[Parcours sans difficulté]]></desc>
  </metadata>
  <trk>
    <name><![CDATA[VTT - Jouques ]]></name>
    <trkseg>
      <trkpt lat="43.63699" lon="5.6384">
        <ele>271.39999389648</ele>
        <time>2013-01-19T08:39:14.000Z</time>
      </trkpt>
      <trkpt lat="43.63675" lon="5.63778">
        <ele>267.79998779297</ele>
        <time>2013-01-19T08:40:11.000Z</time>
      </trkpt>
      <trkpt lat="43.63636" lon="5.63747">
        <ele>265.60000610352</ele>
        <time>2013-01-19T08:40:27.000Z</time>
      </trkpt>
      <trkpt lat="43.6359" lon="5.63741">
        <ele>263.20001220703</ele>
        <time>2013-01-19T08:40:42.000Z</time>
      </trkpt>
      <trkpt lat="43.63585" lon="5.63807">
        <ele>265</ele>
        <time>2013-01-19T08:40:56.000Z</time>
      </trkpt>
      <trkpt lat="43.63579" lon="5.63873">
        <ele>266.20001220703</ele>
        <time>2013-01-19T08:42:04.000Z</time>
      </trkpt>
      <trkpt lat="43.63576" lon="5.63937">
        <ele>266.39999389648</ele>
        <time>2013-01-19T08:42:24.000Z</time>
      </trkpt>
      <trkpt lat="43.63572" lon="5.64003">
        <ele>266.60000610352</ele>
        <time>2013-01-19T08:42:42.000Z</time>
      </trkpt>
      <trkpt lat="43.63614" lon="5.64016">
        <ele>265.79998779297</ele>
        <time>2013-01-19T08:42:58.000Z</time>
      </trkpt>
      <trkpt lat="43.63661" lon="5.64011">
        <ele>266</ele>
        <time>2013-01-19T08:43:12.000Z</time>
      </trkpt>
      <trkpt lat="43.63713" lon="5.64012">
        <ele>272.60000610352</ele>
        <time>2013-01-19T08:43:29.000Z</time>
      </trkpt>
      <trkpt lat="43.6372" lon="5.64081">
        <ele>273.20001220703</ele>
        <time>2013-01-19T08:43:47.000Z</time>
      </trkpt>
      <trkpt lat="43.6371" lon="5.64148">
        <ele>272.60000610352</ele>
        <time>2013-01-19T08:44:01.000Z</time>
      </trkpt>
      <trkpt lat="43.63696" lon="5.6421">
        <ele>270.60000610352</ele>
        <time>2013-01-19T08:44:14.000Z</time>
      </trkpt>
      <trkpt lat="43.63682" lon="5.64271">
        <ele>269</ele>
        <time>2013-01-19T08:44:27.000Z</time>
      </trkpt>
      <trkpt lat="43.63707" lon="5.6432">
        <ele>273.39999389648</ele>
        <time>2013-01-19T08:44:42.000Z</time>
      </trkpt>
      <trkpt lat="43.63699" lon="5.64384">
        <ele>274.39999389648</ele>
        <time>2013-01-19T08:44:55.000Z</time>
      </trkpt>
      <trkpt lat="43.63665" lon="5.6443">
        <ele>275</ele>
        <time>2013-01-19T08:45:07.000Z</time>
      </trkpt>
      <trkpt lat="43.63622" lon="5.64455">
        <ele>276.79998779297</ele>
        <time>2013-01-19T08:45:18.000Z</time>
      </trkpt>
      <trkpt lat="43.63595" lon="5.64507">
        <ele>280</ele>
        <time>2013-01-19T08:45:28.000Z</time>
      </trkpt>
      <trkpt lat="43.6357" lon="5.64562">
        <ele>283.39999389648</ele>
        <time>2013-01-19T08:45:40.000Z</time>
      </trkpt>
      <trkpt lat="43.63555" lon="5.64623">
        <ele>285.20001220703</ele>
        <time>2013-01-19T08:45:53.000Z</time>
      </trkpt>
      <trkpt lat="43.63559" lon="5.64687">
        <ele>285.79998779297</ele>
        <time>2013-01-19T08:46:07.000Z</time>
      </trkpt>
      <trkpt lat="43.6357" lon="5.64751">
        <ele>285.79998779297</ele>
        <time>2013-01-19T08:46:21.000Z</time>
      </trkpt>
      <trkpt lat="43.63574" lon="5.64814">
        <ele>285.79998779297</ele>
        <time>2013-01-19T08:46:35.000Z</time>
      </trkpt>
      <trkpt lat="43.63581" lon="5.64877">
        <ele>283.79998779297</ele>
        <time>2013-01-19T08:46:49.000Z</time>
      </trkpt>
      <trkpt lat="43.63622" lon="5.64905">
        <ele>289.60000610352</ele>
        <time>2013-01-19T08:47:02.000Z</time>
      </trkpt>
      <trkpt lat="43.6364" lon="5.6496">
        <ele>290</ele>
        <time>2013-01-19T08:47:16.000Z</time>
      </trkpt>
      <trkpt lat="43.6366" lon="5.65015">
        <ele>288.60000610352</ele>
        <time>2013-01-19T08:47:31.000Z</time>
      </trkpt>
      <trkpt lat="43.63701" lon="5.6505">
        <ele>295.20001220703</ele>
        <time>2013-01-19T08:47:46.000Z</time>
      </trkpt>
      <trkpt lat="43.63706" lon="5.65112">
        <ele>299.39999389648</ele>
        <time>2013-01-19T08:48:00.000Z</time>
      </trkpt>
      <trkpt lat="43.63704" lon="5.65178">
        <ele>302.60000610352</ele>
        <time>2013-01-19T08:48:15.000Z</time>
      </trkpt>
      <trkpt lat="43.63703" lon="5.6524">
        <ele>299.39999389648</ele>
        <time>2013-01-19T08:48:29.000Z</time>
      </trkpt>
      <trkpt lat="43.63731" lon="5.65291">
        <ele>300</ele>
        <time>2013-01-19T08:48:45.000Z</time>
      </trkpt>
      <trkpt lat="43.63761" lon="5.65335">
        <ele>300</ele>
        <time>2013-01-19T08:49:01.000Z</time>
      </trkpt>
      <trkpt lat="43.63774" lon="5.654">
        <ele>302.39999389648</ele>
        <time>2013-01-19T08:49:16.000Z</time>
      </trkpt>
      <trkpt lat="43.63801" lon="5.65454">
        <ele>304</ele>
        <time>2013-01-19T08:49:30.000Z</time>
      </trkpt>
      <trkpt lat="43.63841" lon="5.65483">
        <ele>305.79998779297</ele>
        <time>2013-01-19T08:49:43.000Z</time>
      </trkpt>
      <trkpt lat="43.63884" lon="5.65506">
        <ele>307.39999389648</ele>
        <time>2013-01-19T08:49:59.000Z</time>
      </trkpt>
      <trkpt lat="43.6393" lon="5.65517">
        <ele>309.60000610352</ele>
        <time>2013-01-19T08:50:15.000Z</time>
      </trkpt>
      <trkpt lat="43.63964" lon="5.65565">
        <ele>313.39999389648</ele>
        <time>2013-01-19T08:50:30.000Z</time>
      </trkpt>
      <trkpt lat="43.63991" lon="5.65619">
        <ele>312.60000610352</ele>
        <time>2013-01-19T08:50:45.000Z</time>
      </trkpt>
      <trkpt lat="43.64027" lon="5.65658">
        <ele>314.20001220703</ele>
        <time>2013-01-19T08:50:59.000Z</time>
      </trkpt>
      <trkpt lat="43.64061" lon="5.65703">
        <ele>315.20001220703</ele>
        <time>2013-01-19T08:51:14.000Z</time>
      </trkpt>
      <trkpt lat="43.64092" lon="5.65745">
        <ele>314.20001220703</ele>
        <time>2013-01-19T08:51:27.000Z</time>
      </trkpt>
      <trkpt lat="43.64072" lon="5.65797">
        <ele>315</ele>
        <time>2013-01-19T08:51:42.000Z</time>
      </trkpt>
      <trkpt lat="43.64064" lon="5.65854">
        <ele>317.60000610352</ele>
        <time>2013-01-19T08:52:01.000Z</time>
      </trkpt>
      <trkpt lat="43.64077" lon="5.65917">
        <ele>322.39999389648</ele>
        <time>2013-01-19T08:52:25.000Z</time>
      </trkpt>
      <trkpt lat="43.64092" lon="5.65978">
        <ele>327.20001220703</ele>
        <time>2013-01-19T08:52:48.000Z</time>
      </trkpt>
      <trkpt lat="43.64082" lon="5.66043">
        <ele>329.20001220703</ele>
        <time>2013-01-19T08:53:09.000Z</time>
      </trkpt>
      <trkpt lat="43.64088" lon="5.66104">
        <ele>330.60000610352</ele>
        <time>2013-01-19T08:53:29.000Z</time>
      </trkpt>
      <trkpt lat="43.64117" lon="5.66146">
        <ele>333.39999389648</ele>
        <time>2013-01-19T08:53:52.000Z</time>
      </trkpt>
      <trkpt lat="43.64153" lon="5.66191">
        <ele>338.20001220703</ele>
        <time>2013-01-19T08:54:13.000Z</time>
      </trkpt>
      <trkpt lat="43.64175" lon="5.66248">
        <ele>340.20001220703</ele>
        <time>2013-01-19T08:54:39.000Z</time>
      </trkpt>
      <trkpt lat="43.64195" lon="5.66312">
        <ele>341.60000610352</ele>
        <time>2013-01-19T08:55:04.000Z</time>
      </trkpt>
      <trkpt lat="43.64207" lon="5.66376">
        <ele>343.79998779297</ele>
        <time>2013-01-19T08:55:29.000Z</time>
      </trkpt>
      <trkpt lat="43.64208" lon="5.66435">
        <ele>343.20001220703</ele>
        <time>2013-01-19T08:55:49.000Z</time>
      </trkpt>
      <trkpt lat="43.64243" lon="5.66412">
        <ele>349.60000610352</ele>
        <time>2013-01-19T08:56:58.000Z</time>
      </trkpt>
      <trkpt lat="43.64282" lon="5.66441">
        <ele>351.39999389648</ele>
        <time>2013-01-19T08:57:19.000Z</time>
      </trkpt>
      <trkpt lat="43.64287" lon="5.66511">
        <ele>352.39999389648</ele>
        <time>2013-01-19T08:57:51.000Z</time>
      </trkpt>
      <trkpt lat="43.64306" lon="5.6657">
        <ele>354.60000610352</ele>
        <time>2013-01-19T08:58:25.000Z</time>
      </trkpt>
      <trkpt lat="43.64317" lon="5.6663">
        <ele>354.39999389648</ele>
        <time>2013-01-19T08:58:48.000Z</time>
      </trkpt>
      <trkpt lat="43.64338" lon="5.66688">
        <ele>354</ele>
        <time>2013-01-19T08:59:06.000Z</time>
      </trkpt>
      <trkpt lat="43.64374" lon="5.66726">
        <ele>354.39999389648</ele>
        <time>2013-01-19T08:59:18.000Z</time>
      </trkpt>
      <trkpt lat="43.64401" lon="5.66781">
        <ele>356.79998779297</ele>
        <time>2013-01-19T08:59:33.000Z</time>
      </trkpt>
      <trkpt lat="43.64432" lon="5.66828">
        <ele>360</ele>
        <time>2013-01-19T08:59:47.000Z</time>
      </trkpt>
      <trkpt lat="43.64465" lon="5.66877">
        <ele>362.39999389648</ele>
        <time>2013-01-19T09:00:04.000Z</time>
      </trkpt>
      <trkpt lat="43.64495" lon="5.66928">
        <ele>367.60000610352</ele>
        <time>2013-01-19T09:00:21.000Z</time>
      </trkpt>
      <trkpt lat="43.64529" lon="5.66974">
        <ele>369.60000610352</ele>
        <time>2013-01-19T09:00:37.000Z</time>
      </trkpt>
      <trkpt lat="43.64543" lon="5.67034">
        <ele>372.20001220703</ele>
        <time>2013-01-19T09:07:08.000Z</time>
      </trkpt>
      <trkpt lat="43.64531" lon="5.67102">
        <ele>372.39999389648</ele>
        <time>2013-01-19T09:07:31.000Z</time>
      </trkpt>
      <trkpt lat="43.64528" lon="5.67183">
        <ele>376.79998779297</ele>
        <time>2013-01-19T09:08:07.000Z</time>
      </trkpt>
      <trkpt lat="43.64517" lon="5.67253">
        <ele>380</ele>
        <time>2013-01-19T09:08:45.000Z</time>
      </trkpt>
      <trkpt lat="43.64512" lon="5.67316">
        <ele>383.20001220703</ele>
        <time>2013-01-19T09:09:09.000Z</time>
      </trkpt>
      <trkpt lat="43.64525" lon="5.67377">
        <ele>386.60000610352</ele>
        <time>2013-01-19T09:09:29.000Z</time>
      </trkpt>
      <trkpt lat="43.64527" lon="5.67447">
        <ele>390.60000610352</ele>
        <time>2013-01-19T09:09:56.000Z</time>
      </trkpt>
      <trkpt lat="43.64537" lon="5.67512">
        <ele>394.60000610352</ele>
        <time>2013-01-19T09:10:16.000Z</time>
      </trkpt>
      <trkpt lat="43.64556" lon="5.67573">
        <ele>396.79998779297</ele>
        <time>2013-01-19T09:10:34.000Z</time>
      </trkpt>
      <trkpt lat="43.64575" lon="5.67632">
        <ele>398.20001220703</ele>
        <time>2013-01-19T09:10:51.000Z</time>
      </trkpt>
      <trkpt lat="43.64576" lon="5.67694">
        <ele>400.20001220703</ele>
        <time>2013-01-19T09:11:08.000Z</time>
      </trkpt>
      <trkpt lat="43.6456" lon="5.67755">
        <ele>402.20001220703</ele>
        <time>2013-01-19T09:11:26.000Z</time>
      </trkpt>
      <trkpt lat="43.64548" lon="5.67818">
        <ele>404.60000610352</ele>
        <time>2013-01-19T09:11:45.000Z</time>
      </trkpt>
      <trkpt lat="43.64552" lon="5.67881">
        <ele>406.60000610352</ele>
        <time>2013-01-19T09:12:04.000Z</time>
      </trkpt>
      <trkpt lat="43.64586" lon="5.67916">
        <ele>407.79998779297</ele>
        <time>2013-01-19T09:12:25.000Z</time>
      </trkpt>
      <trkpt lat="43.64634" lon="5.67931">
        <ele>408.60000610352</ele>
        <time>2013-01-19T09:12:41.000Z</time>
      </trkpt>
      <trkpt lat="43.6468" lon="5.67944">
        <ele>408.60000610352</ele>
        <time>2013-01-19T09:12:53.000Z</time>
      </trkpt>
      <trkpt lat="43.64721" lon="5.67969">
        <ele>409.39999389648</ele>
        <time>2013-01-19T09:13:09.000Z</time>
      </trkpt>
      <trkpt lat="43.64769" lon="5.6797">
        <ele>408.60000610352</ele>
        <time>2013-01-19T09:13:21.000Z</time>
      </trkpt>
      <trkpt lat="43.64816" lon="5.67968">
        <ele>407.79998779297</ele>
        <time>2013-01-19T09:13:35.000Z</time>
      </trkpt>
      <trkpt lat="43.64863" lon="5.67962">
        <ele>407.60000610352</ele>
        <time>2013-01-19T09:13:48.000Z</time>
      </trkpt>
      <trkpt lat="43.64905" lon="5.67967">
        <ele>408.39999389648</ele>
        <time>2013-01-19T09:14:01.000Z</time>
      </trkpt>
      <trkpt lat="43.64923" lon="5.68023">
        <ele>412.39999389648</ele>
        <time>2013-01-19T09:14:19.000Z</time>
      </trkpt>
      <trkpt lat="43.64961" lon="5.68066">
        <ele>413.39999389648</ele>
        <time>2013-01-19T09:14:34.000Z</time>
      </trkpt>
      <trkpt lat="43.64995" lon="5.68109">
        <ele>414.39999389648</ele>
        <time>2013-01-19T09:14:49.000Z</time>
      </trkpt>
      <trkpt lat="43.65037" lon="5.68141">
        <ele>413.79998779297</ele>
        <time>2013-01-19T09:15:04.000Z</time>
      </trkpt>
      <trkpt lat="43.6508" lon="5.68165">
        <ele>412</ele>
        <time>2013-01-19T09:15:17.000Z</time>
      </trkpt>
      <trkpt lat="43.65124" lon="5.68192">
        <ele>413.20001220703</ele>
        <time>2013-01-19T09:15:30.000Z</time>
      </trkpt>
      <trkpt lat="43.65163" lon="5.68226">
        <ele>414.60000610352</ele>
        <time>2013-01-19T09:15:44.000Z</time>
      </trkpt>
      <trkpt lat="43.65199" lon="5.68263">
        <ele>418.39999389648</ele>
        <time>2013-01-19T09:15:57.000Z</time>
      </trkpt>
      <trkpt lat="43.65244" lon="5.68252">
        <ele>418</ele>
        <time>2013-01-19T09:16:13.000Z</time>
      </trkpt>
      <trkpt lat="43.65288" lon="5.68289">
        <ele>418.60000610352</ele>
        <time>2013-01-19T09:16:28.000Z</time>
      </trkpt>
      <trkpt lat="43.65316" lon="5.68343">
        <ele>419.60000610352</ele>
        <time>2013-01-19T09:16:37.000Z</time>
      </trkpt>
      <trkpt lat="43.65359" lon="5.68349">
        <ele>419.20001220703</ele>
        <time>2013-01-19T09:16:47.000Z</time>
      </trkpt>
      <trkpt lat="43.65407" lon="5.68337">
        <ele>419</ele>
        <time>2013-01-19T09:16:58.000Z</time>
      </trkpt>
      <trkpt lat="43.65455" lon="5.68345">
        <ele>417.20001220703</ele>
        <time>2013-01-19T09:17:12.000Z</time>
      </trkpt>
      <trkpt lat="43.65497" lon="5.68364">
        <ele>415.79998779297</ele>
        <time>2013-01-19T09:17:22.000Z</time>
      </trkpt>
      <trkpt lat="43.65528" lon="5.68413">
        <ele>418.39999389648</ele>
        <time>2013-01-19T09:17:36.000Z</time>
      </trkpt>
      <trkpt lat="43.65554" lon="5.68466">
        <ele>419.39999389648</ele>
        <time>2013-01-19T09:17:50.000Z</time>
      </trkpt>
      <trkpt lat="43.65592" lon="5.6843">
        <ele>418.39999389648</ele>
        <time>2013-01-19T09:18:04.000Z</time>
      </trkpt>
      <trkpt lat="43.65595" lon="5.68451">
        <ele>419</ele>
        <time>2013-01-19T09:18:26.000Z</time>
      </trkpt>
      <trkpt lat="43.65583" lon="5.68515">
        <ele>422</ele>
        <time>2013-01-19T09:19:01.000Z</time>
      </trkpt>
      <trkpt lat="43.65582" lon="5.68581">
        <ele>426.60000610352</ele>
        <time>2013-01-19T09:19:23.000Z</time>
      </trkpt>
      <trkpt lat="43.65596" lon="5.68643">
        <ele>427.39999389648</ele>
        <time>2013-01-19T09:19:42.000Z</time>
      </trkpt>
      <trkpt lat="43.65593" lon="5.68705">
        <ele>428.39999389648</ele>
        <time>2013-01-19T09:19:55.000Z</time>
      </trkpt>
      <trkpt lat="43.65606" lon="5.68769">
        <ele>429.60000610352</ele>
        <time>2013-01-19T09:20:07.000Z</time>
      </trkpt>
      <trkpt lat="43.65636" lon="5.68818">
        <ele>432</ele>
        <time>2013-01-19T09:20:18.000Z</time>
      </trkpt>
      <trkpt lat="43.65668" lon="5.68866">
        <ele>433.39999389648</ele>
        <time>2013-01-19T09:20:32.000Z</time>
      </trkpt>
      <trkpt lat="43.65694" lon="5.68922">
        <ele>434.20001220703</ele>
        <time>2013-01-19T09:20:46.000Z</time>
      </trkpt>
      <trkpt lat="43.65722" lon="5.6898">
        <ele>435.79998779297</ele>
        <time>2013-01-19T09:21:00.000Z</time>
      </trkpt>
      <trkpt lat="43.65759" lon="5.69021">
        <ele>435.60000610352</ele>
        <time>2013-01-19T09:21:11.000Z</time>
      </trkpt>
      <trkpt lat="43.65797" lon="5.69066">
        <ele>436.39999389648</ele>
        <time>2013-01-19T09:21:22.000Z</time>
      </trkpt>
      <trkpt lat="43.65827" lon="5.6912">
        <ele>435.39999389648</ele>
        <time>2013-01-19T09:21:31.000Z</time>
      </trkpt>
      <trkpt lat="43.65864" lon="5.69168">
        <ele>435</ele>
        <time>2013-01-19T09:21:40.000Z</time>
      </trkpt>
      <trkpt lat="43.65901" lon="5.69205">
        <ele>436.20001220703</ele>
        <time>2013-01-19T09:21:48.000Z</time>
      </trkpt>
      <trkpt lat="43.65927" lon="5.69254">
        <ele>435.60000610352</ele>
        <time>2013-01-19T09:21:58.000Z</time>
      </trkpt>
      <trkpt lat="43.65945" lon="5.69312">
        <ele>436.79998779297</ele>
        <time>2013-01-19T09:22:09.000Z</time>
      </trkpt>
      <trkpt lat="43.65945" lon="5.69366">
        <ele>438.39999389648</ele>
        <time>2013-01-19T09:22:27.000Z</time>
      </trkpt>
      <trkpt lat="43.65914" lon="5.69414">
        <ele>441.79998779297</ele>
        <time>2013-01-19T09:22:49.000Z</time>
      </trkpt>
      <trkpt lat="43.65887" lon="5.69465">
        <ele>443.60000610352</ele>
        <time>2013-01-19T09:23:09.000Z</time>
      </trkpt>
      <trkpt lat="43.65884" lon="5.69523">
        <ele>445.60000610352</ele>
        <time>2013-01-19T09:23:33.000Z</time>
      </trkpt>
      <trkpt lat="43.65869" lon="5.69583">
        <ele>448</ele>
        <time>2013-01-19T09:23:58.000Z</time>
      </trkpt>
      <trkpt lat="43.65862" lon="5.69646">
        <ele>451</ele>
        <time>2013-01-19T09:24:18.000Z</time>
      </trkpt>
      <trkpt lat="43.65842" lon="5.69702">
        <ele>454.60000610352</ele>
        <time>2013-01-19T09:24:37.000Z</time>
      </trkpt>
      <trkpt lat="43.65813" lon="5.6975">
        <ele>458.60000610352</ele>
        <time>2013-01-19T09:24:55.000Z</time>
      </trkpt>
      <trkpt lat="43.65779" lon="5.69793">
        <ele>463.60000610352</ele>
        <time>2013-01-19T09:25:12.000Z</time>
      </trkpt>
      <trkpt lat="43.65745" lon="5.6984">
        <ele>466.60000610352</ele>
        <time>2013-01-19T09:25:32.000Z</time>
      </trkpt>
      <trkpt lat="43.65715" lon="5.69888">
        <ele>473</ele>
        <time>2013-01-19T09:25:49.000Z</time>
      </trkpt>
      <trkpt lat="43.65686" lon="5.69931">
        <ele>474.20001220703</ele>
        <time>2013-01-19T09:26:10.000Z</time>
      </trkpt>
      <trkpt lat="43.65644" lon="5.69953">
        <ele>476.79998779297</ele>
        <time>2013-01-19T09:26:35.000Z</time>
      </trkpt>
      <trkpt lat="43.65608" lon="5.69988">
        <ele>479.20001220703</ele>
        <time>2013-01-19T09:26:53.000Z</time>
      </trkpt>
      <trkpt lat="43.65585" lon="5.70043">
        <ele>481</ele>
        <time>2013-01-19T09:27:12.000Z</time>
      </trkpt>
      <trkpt lat="43.65546" lon="5.70075">
        <ele>483.79998779297</ele>
        <time>2013-01-19T09:27:30.000Z</time>
      </trkpt>
      <trkpt lat="43.65504" lon="5.70094">
        <ele>486</ele>
        <time>2013-01-19T09:27:49.000Z</time>
      </trkpt>
      <trkpt lat="43.65459" lon="5.70085">
        <ele>486.60000610352</ele>
        <time>2013-01-19T09:28:09.000Z</time>
      </trkpt>
      <trkpt lat="43.65418" lon="5.70114">
        <ele>488.60000610352</ele>
        <time>2013-01-19T09:28:28.000Z</time>
      </trkpt>
      <trkpt lat="43.65381" lon="5.70151">
        <ele>491</ele>
        <time>2013-01-19T09:28:48.000Z</time>
      </trkpt>
      <trkpt lat="43.65337" lon="5.7014">
        <ele>493</ele>
        <time>2013-01-19T09:29:07.000Z</time>
      </trkpt>
      <trkpt lat="43.65297" lon="5.7017">
        <ele>494.79998779297</ele>
        <time>2013-01-19T09:29:27.000Z</time>
      </trkpt>
      <trkpt lat="43.65253" lon="5.70194">
        <ele>499.20001220703</ele>
        <time>2013-01-19T09:29:45.000Z</time>
      </trkpt>
      <trkpt lat="43.65211" lon="5.70217">
        <ele>505.39999389648</ele>
        <time>2013-01-19T09:30:02.000Z</time>
      </trkpt>
      <trkpt lat="43.65176" lon="5.7021">
        <ele>508.79998779297</ele>
        <time>2013-01-19T09:30:18.000Z</time>
      </trkpt>
      <trkpt lat="43.65143" lon="5.70257">
        <ele>512.20001220703</ele>
        <time>2013-01-19T09:30:35.000Z</time>
      </trkpt>
      <trkpt lat="43.65119" lon="5.7031">
        <ele>516</ele>
        <time>2013-01-19T09:30:51.000Z</time>
      </trkpt>
      <trkpt lat="43.65105" lon="5.70364">
        <ele>518.40002441406</ele>
        <time>2013-01-19T09:31:07.000Z</time>
      </trkpt>
      <trkpt lat="43.65059" lon="5.7038">
        <ele>520.79998779297</ele>
        <time>2013-01-19T09:31:24.000Z</time>
      </trkpt>
      <trkpt lat="43.6502" lon="5.70353">
        <ele>523.40002441406</ele>
        <time>2013-01-19T09:31:41.000Z</time>
      </trkpt>
      <trkpt lat="43.64979" lon="5.7032">
        <ele>528</ele>
        <time>2013-01-19T09:31:59.000Z</time>
      </trkpt>
      <trkpt lat="43.64934" lon="5.70325">
        <ele>531.59997558594</ele>
        <time>2013-01-19T09:32:18.000Z</time>
      </trkpt>
      <trkpt lat="43.64888" lon="5.70329">
        <ele>536.59997558594</ele>
        <time>2013-01-19T09:32:41.000Z</time>
      </trkpt>
      <trkpt lat="43.64844" lon="5.70313">
        <ele>543.79998779297</ele>
        <time>2013-01-19T09:33:02.000Z</time>
      </trkpt>
      <trkpt lat="43.64812" lon="5.7027">
        <ele>550.79998779297</ele>
        <time>2013-01-19T09:33:22.000Z</time>
      </trkpt>
      <trkpt lat="43.64776" lon="5.70231">
        <ele>556</ele>
        <time>2013-01-19T09:33:44.000Z</time>
      </trkpt>
      <trkpt lat="43.64743" lon="5.70185">
        <ele>558.20001220703</ele>
        <time>2013-01-19T09:34:09.000Z</time>
      </trkpt>
      <trkpt lat="43.64705" lon="5.70166">
        <ele>560.20001220703</ele>
        <time>2013-01-19T09:34:31.000Z</time>
      </trkpt>
      <trkpt lat="43.64666" lon="5.70137">
        <ele>562</ele>
        <time>2013-01-19T09:34:52.000Z</time>
      </trkpt>
      <trkpt lat="43.6463" lon="5.70097">
        <ele>566.40002441406</ele>
        <time>2013-01-19T09:35:12.000Z</time>
      </trkpt>
      <trkpt lat="43.64593" lon="5.70064">
        <ele>569.59997558594</ele>
        <time>2013-01-19T09:35:33.000Z</time>
      </trkpt>
      <trkpt lat="43.64548" lon="5.70067">
        <ele>576.20001220703</ele>
        <time>2013-01-19T09:35:57.000Z</time>
      </trkpt>
      <trkpt lat="43.64504" lon="5.70087">
        <ele>581.59997558594</ele>
        <time>2013-01-19T09:36:23.000Z</time>
      </trkpt>
      <trkpt lat="43.64477" lon="5.70079">
        <ele>586.79998779297</ele>
        <time>2013-01-19T09:36:50.000Z</time>
      </trkpt>
      <trkpt lat="43.64511" lon="5.70035">
        <ele>586</ele>
        <time>2013-01-19T09:37:12.000Z</time>
      </trkpt>
      <trkpt lat="43.64483" lon="5.70044">
        <ele>590.59997558594</ele>
        <time>2013-01-19T09:37:33.000Z</time>
      </trkpt>
      <trkpt lat="43.64439" lon="5.70067">
        <ele>595.59997558594</ele>
        <time>2013-01-19T09:37:54.000Z</time>
      </trkpt>
      <trkpt lat="43.64408" lon="5.70109">
        <ele>597.20001220703</ele>
        <time>2013-01-19T09:38:16.000Z</time>
      </trkpt>
      <trkpt lat="43.64382" lon="5.70111">
        <ele>596.59997558594</ele>
        <time>2013-01-19T09:38:44.000Z</time>
      </trkpt>
      <trkpt lat="43.64345" lon="5.70103">
        <ele>596</ele>
        <time>2013-01-19T09:45:14.000Z</time>
      </trkpt>
      <trkpt lat="43.64311" lon="5.70114">
        <ele>594.79998779297</ele>
        <time>2013-01-19T09:45:29.000Z</time>
      </trkpt>
      <trkpt lat="43.64283" lon="5.70163">
        <ele>584.79998779297</ele>
        <time>2013-01-19T09:45:41.000Z</time>
      </trkpt>
      <trkpt lat="43.6424" lon="5.70185">
        <ele>578.59997558594</ele>
        <time>2013-01-19T09:45:52.000Z</time>
      </trkpt>
      <trkpt lat="43.6422" lon="5.70244">
        <ele>570.59997558594</ele>
        <time>2013-01-19T09:46:03.000Z</time>
      </trkpt>
      <trkpt lat="43.64186" lon="5.7029">
        <ele>563.20001220703</ele>
        <time>2013-01-19T09:46:13.000Z</time>
      </trkpt>
      <trkpt lat="43.6415" lon="5.70334">
        <ele>553.59997558594</ele>
        <time>2013-01-19T09:46:20.000Z</time>
      </trkpt>
      <trkpt lat="43.64127" lon="5.70391">
        <ele>549</ele>
        <time>2013-01-19T09:46:27.000Z</time>
      </trkpt>
      <trkpt lat="43.64093" lon="5.70446">
        <ele>539.20001220703</ele>
        <time>2013-01-19T09:46:35.000Z</time>
      </trkpt>
      <trkpt lat="43.64062" lon="5.70493">
        <ele>535.59997558594</ele>
        <time>2013-01-19T09:46:41.000Z</time>
      </trkpt>
      <trkpt lat="43.64031" lon="5.70544">
        <ele>531.20001220703</ele>
        <time>2013-01-19T09:46:48.000Z</time>
      </trkpt>
      <trkpt lat="43.64002" lon="5.70598">
        <ele>520.20001220703</ele>
        <time>2013-01-19T09:46:56.000Z</time>
      </trkpt>
      <trkpt lat="43.6397" lon="5.70648">
        <ele>519</ele>
        <time>2013-01-19T09:47:03.000Z</time>
      </trkpt>
      <trkpt lat="43.63935" lon="5.70699">
        <ele>514</ele>
        <time>2013-01-19T09:47:14.000Z</time>
      </trkpt>
      <trkpt lat="43.63907" lon="5.70752">
        <ele>508.60000610352</ele>
        <time>2013-01-19T09:47:22.000Z</time>
      </trkpt>
      <trkpt lat="43.63875" lon="5.70803">
        <ele>508.60000610352</ele>
        <time>2013-01-19T09:47:30.000Z</time>
      </trkpt>
      <trkpt lat="43.63845" lon="5.7085">
        <ele>504</ele>
        <time>2013-01-19T09:47:36.000Z</time>
      </trkpt>
      <trkpt lat="43.63814" lon="5.70902">
        <ele>503.60000610352</ele>
        <time>2013-01-19T09:47:44.000Z</time>
      </trkpt>
      <trkpt lat="43.63779" lon="5.70948">
        <ele>501.79998779297</ele>
        <time>2013-01-19T09:47:53.000Z</time>
      </trkpt>
      <trkpt lat="43.6374" lon="5.70988">
        <ele>497</ele>
        <time>2013-01-19T09:48:02.000Z</time>
      </trkpt>
      <trkpt lat="43.63717" lon="5.71037">
        <ele>495</ele>
        <time>2013-01-19T09:48:11.000Z</time>
      </trkpt>
      <trkpt lat="43.6368" lon="5.71077">
        <ele>489.20001220703</ele>
        <time>2013-01-19T09:48:19.000Z</time>
      </trkpt>
      <trkpt lat="43.63662" lon="5.71131">
        <ele>493.60000610352</ele>
        <time>2013-01-19T09:48:30.000Z</time>
      </trkpt>
      <trkpt lat="43.63637" lon="5.71187">
        <ele>502.20001220703</ele>
        <time>2013-01-19T09:48:53.000Z</time>
      </trkpt>
      <trkpt lat="43.63601" lon="5.71233">
        <ele>506.39999389648</ele>
        <time>2013-01-19T09:49:16.000Z</time>
      </trkpt>
      <trkpt lat="43.63569" lon="5.71283">
        <ele>511.60000610352</ele>
        <time>2013-01-19T09:49:41.000Z</time>
      </trkpt>
      <trkpt lat="43.63536" lon="5.71333">
        <ele>518.20001220703</ele>
        <time>2013-01-19T09:50:06.000Z</time>
      </trkpt>
      <trkpt lat="43.63521" lon="5.71401">
        <ele>520.79998779297</ele>
        <time>2013-01-19T09:50:35.000Z</time>
      </trkpt>
      <trkpt lat="43.63505" lon="5.71443">
        <ele>517.59997558594</ele>
        <time>2013-01-19T09:54:03.000Z</time>
      </trkpt>
      <trkpt lat="43.63482" lon="5.715">
        <ele>510.20001220703</ele>
        <time>2013-01-19T09:54:17.000Z</time>
      </trkpt>
      <trkpt lat="43.63472" lon="5.71562">
        <ele>503</ele>
        <time>2013-01-19T09:54:29.000Z</time>
      </trkpt>
      <trkpt lat="43.63451" lon="5.71625">
        <ele>495.60000610352</ele>
        <time>2013-01-19T09:54:41.000Z</time>
      </trkpt>
      <trkpt lat="43.63427" lon="5.71693">
        <ele>485.60000610352</ele>
        <time>2013-01-19T09:54:48.000Z</time>
      </trkpt>
      <trkpt lat="43.63402" lon="5.71753">
        <ele>476.39999389648</ele>
        <time>2013-01-19T09:54:56.000Z</time>
      </trkpt>
      <trkpt lat="43.63385" lon="5.71802">
        <ele>474</ele>
        <time>2013-01-19T09:56:25.000Z</time>
      </trkpt>
      <trkpt lat="43.6336" lon="5.71859">
        <ele>472.20001220703</ele>
        <time>2013-01-19T09:56:35.000Z</time>
      </trkpt>
      <trkpt lat="43.63329" lon="5.71907">
        <ele>470</ele>
        <time>2013-01-19T09:56:47.000Z</time>
      </trkpt>
      <trkpt lat="43.63308" lon="5.71963">
        <ele>468</ele>
        <time>2013-01-19T09:56:57.000Z</time>
      </trkpt>
      <trkpt lat="43.63286" lon="5.72023">
        <ele>467.20001220703</ele>
        <time>2013-01-19T09:57:06.000Z</time>
      </trkpt>
      <trkpt lat="43.63273" lon="5.72086">
        <ele>464.79998779297</ele>
        <time>2013-01-19T09:57:16.000Z</time>
      </trkpt>
      <trkpt lat="43.63253" lon="5.7215">
        <ele>464.39999389648</ele>
        <time>2013-01-19T09:57:27.000Z</time>
      </trkpt>
      <trkpt lat="43.63222" lon="5.72206">
        <ele>464</ele>
        <time>2013-01-19T09:57:36.000Z</time>
      </trkpt>
      <trkpt lat="43.63203" lon="5.72264">
        <ele>461.39999389648</ele>
        <time>2013-01-19T09:57:44.000Z</time>
      </trkpt>
      <trkpt lat="43.63234" lon="5.72315">
        <ele>456.60000610352</ele>
        <time>2013-01-19T09:58:01.000Z</time>
      </trkpt>
      <trkpt lat="43.63214" lon="5.72375">
        <ele>454.20001220703</ele>
        <time>2013-01-19T09:58:47.000Z</time>
      </trkpt>
      <trkpt lat="43.63194" lon="5.72435">
        <ele>452.39999389648</ele>
        <time>2013-01-19T09:59:01.000Z</time>
      </trkpt>
      <trkpt lat="43.63173" lon="5.72493">
        <ele>450.20001220703</ele>
        <time>2013-01-19T09:59:14.000Z</time>
      </trkpt>
      <trkpt lat="43.63152" lon="5.7255">
        <ele>449.39999389648</ele>
        <time>2013-01-19T09:59:28.000Z</time>
      </trkpt>
      <trkpt lat="43.63134" lon="5.72612">
        <ele>448</ele>
        <time>2013-01-19T10:00:04.000Z</time>
      </trkpt>
      <trkpt lat="43.63114" lon="5.72671">
        <ele>446</ele>
        <time>2013-01-19T10:00:23.000Z</time>
      </trkpt>
      <trkpt lat="43.63096" lon="5.72732">
        <ele>443.79998779297</ele>
        <time>2013-01-19T10:00:42.000Z</time>
      </trkpt>
      <trkpt lat="43.63074" lon="5.7279">
        <ele>441.20001220703</ele>
        <time>2013-01-19T10:01:00.000Z</time>
      </trkpt>
      <trkpt lat="43.63059" lon="5.72854">
        <ele>439</ele>
        <time>2013-01-19T10:01:08.000Z</time>
      </trkpt>
      <trkpt lat="43.63037" lon="5.72912">
        <ele>437.20001220703</ele>
        <time>2013-01-19T10:01:16.000Z</time>
      </trkpt>
      <trkpt lat="43.6303" lon="5.72975">
        <ele>435.79998779297</ele>
        <time>2013-01-19T10:01:24.000Z</time>
      </trkpt>
      <trkpt lat="43.63024" lon="5.73042">
        <ele>433.39999389648</ele>
        <time>2013-01-19T10:01:34.000Z</time>
      </trkpt>
      <trkpt lat="43.63037" lon="5.73098">
        <ele>430.60000610352</ele>
        <time>2013-01-19T10:01:49.000Z</time>
      </trkpt>
      <trkpt lat="43.63061" lon="5.73153">
        <ele>425.39999389648</ele>
        <time>2013-01-19T10:02:16.000Z</time>
      </trkpt>
      <trkpt lat="43.63088" lon="5.73204">
        <ele>423</ele>
        <time>2013-01-19T10:02:29.000Z</time>
      </trkpt>
      <trkpt lat="43.63096" lon="5.73268">
        <ele>423.79998779297</ele>
        <time>2013-01-19T10:02:40.000Z</time>
      </trkpt>
      <trkpt lat="43.63089" lon="5.73339">
        <ele>422.39999389648</ele>
        <time>2013-01-19T10:02:52.000Z</time>
      </trkpt>
      <trkpt lat="43.63077" lon="5.73407">
        <ele>420.39999389648</ele>
        <time>2013-01-19T10:03:01.000Z</time>
      </trkpt>
      <trkpt lat="43.63067" lon="5.73473">
        <ele>417</ele>
        <time>2013-01-19T10:03:10.000Z</time>
      </trkpt>
      <trkpt lat="43.63059" lon="5.73542">
        <ele>415.39999389648</ele>
        <time>2013-01-19T10:03:19.000Z</time>
      </trkpt>
      <trkpt lat="43.63064" lon="5.7361">
        <ele>413.79998779297</ele>
        <time>2013-01-19T10:03:28.000Z</time>
      </trkpt>
      <trkpt lat="43.63062" lon="5.73681">
        <ele>414.20001220703</ele>
        <time>2013-01-19T10:03:37.000Z</time>
      </trkpt>
      <trkpt lat="43.63051" lon="5.73745">
        <ele>414.39999389648</ele>
        <time>2013-01-19T10:03:47.000Z</time>
      </trkpt>
      <trkpt lat="43.63042" lon="5.73809">
        <ele>412.79998779297</ele>
        <time>2013-01-19T10:03:59.000Z</time>
      </trkpt>
      <trkpt lat="43.6303" lon="5.73872">
        <ele>413</ele>
        <time>2013-01-19T10:04:11.000Z</time>
      </trkpt>
      <trkpt lat="43.6303" lon="5.73939">
        <ele>411.39999389648</ele>
        <time>2013-01-19T10:04:21.000Z</time>
      </trkpt>
      <trkpt lat="43.63037" lon="5.74008">
        <ele>409</ele>
        <time>2013-01-19T10:04:31.000Z</time>
      </trkpt>
      <trkpt lat="43.63051" lon="5.74072">
        <ele>406.20001220703</ele>
        <time>2013-01-19T10:04:40.000Z</time>
      </trkpt>
      <trkpt lat="43.63051" lon="5.7414">
        <ele>404.60000610352</ele>
        <time>2013-01-19T10:04:50.000Z</time>
      </trkpt>
      <trkpt lat="43.63047" lon="5.74204">
        <ele>404.79998779297</ele>
        <time>2013-01-19T10:05:00.000Z</time>
      </trkpt>
      <trkpt lat="43.63041" lon="5.74266">
        <ele>406.20001220703</ele>
        <time>2013-01-19T10:05:09.000Z</time>
      </trkpt>
      <trkpt lat="43.63029" lon="5.7433">
        <ele>408.20001220703</ele>
        <time>2013-01-19T10:05:27.000Z</time>
      </trkpt>
      <trkpt lat="43.63015" lon="5.74396">
        <ele>409.39999389648</ele>
        <time>2013-01-19T10:05:54.000Z</time>
      </trkpt>
      <trkpt lat="43.62999" lon="5.74462">
        <ele>407</ele>
        <time>2013-01-19T10:06:22.000Z</time>
      </trkpt>
      <trkpt lat="43.62976" lon="5.74519">
        <ele>409.60000610352</ele>
        <time>2013-01-19T10:06:52.000Z</time>
      </trkpt>
      <trkpt lat="43.62936" lon="5.74556">
        <ele>413.79998779297</ele>
        <time>2013-01-19T10:07:16.000Z</time>
      </trkpt>
      <trkpt lat="43.62927" lon="5.74576">
        <ele>413</ele>
        <time>2013-01-19T10:07:44.000Z</time>
      </trkpt>
      <trkpt lat="43.62972" lon="5.74592">
        <ele>410.79998779297</ele>
        <time>2013-01-19T10:08:46.000Z</time>
      </trkpt>
      <trkpt lat="43.63017" lon="5.74601">
        <ele>410.20001220703</ele>
        <time>2013-01-19T10:09:11.000Z</time>
      </trkpt>
      <trkpt lat="43.63061" lon="5.74594">
        <ele>408.20001220703</ele>
        <time>2013-01-19T10:09:25.000Z</time>
      </trkpt>
      <trkpt lat="43.63104" lon="5.74607">
        <ele>405.79998779297</ele>
        <time>2013-01-19T10:09:40.000Z</time>
      </trkpt>
      <trkpt lat="43.63152" lon="5.74591">
        <ele>402</ele>
        <time>2013-01-19T10:09:53.000Z</time>
      </trkpt>
      <trkpt lat="43.632" lon="5.74569">
        <ele>401</ele>
        <time>2013-01-19T10:10:04.000Z</time>
      </trkpt>
      <trkpt lat="43.63246" lon="5.7455">
        <ele>398.20001220703</ele>
        <time>2013-01-19T10:10:14.000Z</time>
      </trkpt>
      <trkpt lat="43.63274" lon="5.74502">
        <ele>395.20001220703</ele>
        <time>2013-01-19T10:10:31.000Z</time>
      </trkpt>
      <trkpt lat="43.63316" lon="5.7447">
        <ele>389</ele>
        <time>2013-01-19T10:10:43.000Z</time>
      </trkpt>
      <trkpt lat="43.63359" lon="5.74439">
        <ele>383</ele>
        <time>2013-01-19T10:10:56.000Z</time>
      </trkpt>
      <trkpt lat="43.63402" lon="5.74411">
        <ele>379.20001220703</ele>
        <time>2013-01-19T10:11:04.000Z</time>
      </trkpt>
      <trkpt lat="43.63446" lon="5.74384">
        <ele>377.39999389648</ele>
        <time>2013-01-19T10:11:13.000Z</time>
      </trkpt>
      <trkpt lat="43.63492" lon="5.74404">
        <ele>373.60000610352</ele>
        <time>2013-01-19T10:11:23.000Z</time>
      </trkpt>
      <trkpt lat="43.63538" lon="5.74414">
        <ele>372</ele>
        <time>2013-01-19T10:11:35.000Z</time>
      </trkpt>
      <trkpt lat="43.63585" lon="5.74421">
        <ele>371.20001220703</ele>
        <time>2013-01-19T10:11:47.000Z</time>
      </trkpt>
      <trkpt lat="43.63631" lon="5.74431">
        <ele>376</ele>
        <time>2013-01-19T10:12:03.000Z</time>
      </trkpt>
      <trkpt lat="43.63676" lon="5.74432">
        <ele>382.20001220703</ele>
        <time>2013-01-19T10:12:26.000Z</time>
      </trkpt>
      <trkpt lat="43.63713" lon="5.7439">
        <ele>388.20001220703</ele>
        <time>2013-01-19T10:12:50.000Z</time>
      </trkpt>
      <trkpt lat="43.63748" lon="5.74349">
        <ele>392.39999389648</ele>
        <time>2013-01-19T10:13:14.000Z</time>
      </trkpt>
      <trkpt lat="43.63772" lon="5.74292">
        <ele>395.60000610352</ele>
        <time>2013-01-19T10:13:39.000Z</time>
      </trkpt>
      <trkpt lat="43.63793" lon="5.74237">
        <ele>399.39999389648</ele>
        <time>2013-01-19T10:14:04.000Z</time>
      </trkpt>
      <trkpt lat="43.63808" lon="5.74172">
        <ele>402.60000610352</ele>
        <time>2013-01-19T10:14:29.000Z</time>
      </trkpt>
      <trkpt lat="43.63825" lon="5.74166">
        <ele>407.60000610352</ele>
        <time>2013-01-19T10:14:53.000Z</time>
      </trkpt>
      <trkpt lat="43.63827" lon="5.7423">
        <ele>409</ele>
        <time>2013-01-19T10:15:10.000Z</time>
      </trkpt>
      <trkpt lat="43.6383" lon="5.74294">
        <ele>412</ele>
        <time>2013-01-19T10:15:27.000Z</time>
      </trkpt>
      <trkpt lat="43.63847" lon="5.74348">
        <ele>416.39999389648</ele>
        <time>2013-01-19T10:15:46.000Z</time>
      </trkpt>
      <trkpt lat="43.63893" lon="5.74346">
        <ele>419.79998779297</ele>
        <time>2013-01-19T10:16:11.000Z</time>
      </trkpt>
      <trkpt lat="43.6394" lon="5.74342">
        <ele>420</ele>
        <time>2013-01-19T10:20:24.000Z</time>
      </trkpt>
      <trkpt lat="43.63989" lon="5.74337">
        <ele>416.60000610352</ele>
        <time>2013-01-19T10:20:34.000Z</time>
      </trkpt>
      <trkpt lat="43.64037" lon="5.74336">
        <ele>415.39999389648</ele>
        <time>2013-01-19T10:20:46.000Z</time>
      </trkpt>
      <trkpt lat="43.64083" lon="5.74334">
        <ele>414.79998779297</ele>
        <time>2013-01-19T10:20:58.000Z</time>
      </trkpt>
      <trkpt lat="43.64129" lon="5.74332">
        <ele>418.20001220703</ele>
        <time>2013-01-19T10:21:11.000Z</time>
      </trkpt>
      <trkpt lat="43.64177" lon="5.74329">
        <ele>421.60000610352</ele>
        <time>2013-01-19T10:21:28.000Z</time>
      </trkpt>
      <trkpt lat="43.64224" lon="5.74326">
        <ele>423.79998779297</ele>
        <time>2013-01-19T10:21:43.000Z</time>
      </trkpt>
      <trkpt lat="43.64274" lon="5.74328">
        <ele>424.79998779297</ele>
        <time>2013-01-19T10:22:01.000Z</time>
      </trkpt>
      <trkpt lat="43.64322" lon="5.74323">
        <ele>424.20001220703</ele>
        <time>2013-01-19T10:22:17.000Z</time>
      </trkpt>
      <trkpt lat="43.6437" lon="5.74324">
        <ele>423.60000610352</ele>
        <time>2013-01-19T10:22:28.000Z</time>
      </trkpt>
      <trkpt lat="43.64419" lon="5.7432">
        <ele>422.60000610352</ele>
        <time>2013-01-19T10:22:40.000Z</time>
      </trkpt>
      <trkpt lat="43.64469" lon="5.74317">
        <ele>421</ele>
        <time>2013-01-19T10:22:52.000Z</time>
      </trkpt>
      <trkpt lat="43.64518" lon="5.74317">
        <ele>418.79998779297</ele>
        <time>2013-01-19T10:23:04.000Z</time>
      </trkpt>
      <trkpt lat="43.64568" lon="5.74317">
        <ele>415.60000610352</ele>
        <time>2013-01-19T10:23:14.000Z</time>
      </trkpt>
      <trkpt lat="43.64616" lon="5.74314">
        <ele>414.79998779297</ele>
        <time>2013-01-19T10:23:23.000Z</time>
      </trkpt>
      <trkpt lat="43.64663" lon="5.74312">
        <ele>414.60000610352</ele>
        <time>2013-01-19T10:23:33.000Z</time>
      </trkpt>
      <trkpt lat="43.6471" lon="5.74307">
        <ele>412</ele>
        <time>2013-01-19T10:23:42.000Z</time>
      </trkpt>
      <trkpt lat="43.6476" lon="5.743">
        <ele>409</ele>
        <time>2013-01-19T10:23:51.000Z</time>
      </trkpt>
      <trkpt lat="43.64806" lon="5.74287">
        <ele>405.39999389648</ele>
        <time>2013-01-19T10:24:00.000Z</time>
      </trkpt>
      <trkpt lat="43.64853" lon="5.74285">
        <ele>402.60000610352</ele>
        <time>2013-01-19T10:24:10.000Z</time>
      </trkpt>
      <trkpt lat="43.64898" lon="5.74275">
        <ele>402.20001220703</ele>
        <time>2013-01-19T10:24:20.000Z</time>
      </trkpt>
      <trkpt lat="43.64947" lon="5.74271">
        <ele>401</ele>
        <time>2013-01-19T10:24:31.000Z</time>
      </trkpt>
      <trkpt lat="43.64995" lon="5.74262">
        <ele>400</ele>
        <time>2013-01-19T10:24:39.000Z</time>
      </trkpt>
      <trkpt lat="43.65039" lon="5.74249">
        <ele>401.20001220703</ele>
        <time>2013-01-19T10:24:51.000Z</time>
      </trkpt>
      <trkpt lat="43.65057" lon="5.74186">
        <ele>392.79998779297</ele>
        <time>2013-01-19T10:25:07.000Z</time>
      </trkpt>
      <trkpt lat="43.65084" lon="5.74136">
        <ele>383.39999389648</ele>
        <time>2013-01-19T10:25:25.000Z</time>
      </trkpt>
      <trkpt lat="43.65111" lon="5.74081">
        <ele>373.20001220703</ele>
        <time>2013-01-19T10:25:44.000Z</time>
      </trkpt>
      <trkpt lat="43.65147" lon="5.74043">
        <ele>365.39999389648</ele>
        <time>2013-01-19T10:25:59.000Z</time>
      </trkpt>
      <trkpt lat="43.65187" lon="5.74017">
        <ele>358.79998779297</ele>
        <time>2013-01-19T10:26:13.000Z</time>
      </trkpt>
      <trkpt lat="43.65222" lon="5.73971">
        <ele>352</ele>
        <time>2013-01-19T10:26:24.000Z</time>
      </trkpt>
      <trkpt lat="43.65268" lon="5.73965">
        <ele>352.20001220703</ele>
        <time>2013-01-19T10:26:35.000Z</time>
      </trkpt>
      <trkpt lat="43.65299" lon="5.73928">
        <ele>350</ele>
        <time>2013-01-19T10:26:47.000Z</time>
      </trkpt>
      <trkpt lat="43.6533" lon="5.73879">
        <ele>346</ele>
        <time>2013-01-19T10:26:58.000Z</time>
      </trkpt>
      <trkpt lat="43.6537" lon="5.73848">
        <ele>342.39999389648</ele>
        <time>2013-01-19T10:27:08.000Z</time>
      </trkpt>
      <trkpt lat="43.65416" lon="5.73839">
        <ele>339.79998779297</ele>
        <time>2013-01-19T10:27:17.000Z</time>
      </trkpt>
      <trkpt lat="43.65462" lon="5.73834">
        <ele>338.39999389648</ele>
        <time>2013-01-19T10:27:26.000Z</time>
      </trkpt>
      <trkpt lat="43.65511" lon="5.73821">
        <ele>338.60000610352</ele>
        <time>2013-01-19T10:27:35.000Z</time>
      </trkpt>
      <trkpt lat="43.65551" lon="5.7383">
        <ele>337.39999389648</ele>
        <time>2013-01-19T10:28:08.000Z</time>
      </trkpt>
      <trkpt lat="43.65584" lon="5.73878">
        <ele>336.39999389648</ele>
        <time>2013-01-19T10:28:20.000Z</time>
      </trkpt>
      <trkpt lat="43.65621" lon="5.73914">
        <ele>338</ele>
        <time>2013-01-19T10:28:31.000Z</time>
      </trkpt>
      <trkpt lat="43.6564" lon="5.73974">
        <ele>336</ele>
        <time>2013-01-19T10:28:43.000Z</time>
      </trkpt>
      <trkpt lat="43.65679" lon="5.74004">
        <ele>333.79998779297</ele>
        <time>2013-01-19T10:28:52.000Z</time>
      </trkpt>
      <trkpt lat="43.65724" lon="5.74022">
        <ele>334.20001220703</ele>
        <time>2013-01-19T10:29:01.000Z</time>
      </trkpt>
      <trkpt lat="43.65764" lon="5.7406">
        <ele>329.20001220703</ele>
        <time>2013-01-19T10:29:11.000Z</time>
      </trkpt>
      <trkpt lat="43.65786" lon="5.74109">
        <ele>326</ele>
        <time>2013-01-19T10:29:21.000Z</time>
      </trkpt>
      <trkpt lat="43.65823" lon="5.74147">
        <ele>322.39999389648</ele>
        <time>2013-01-19T10:29:29.000Z</time>
      </trkpt>
      <trkpt lat="43.65861" lon="5.74126">
        <ele>322.39999389648</ele>
        <time>2013-01-19T10:29:41.000Z</time>
      </trkpt>
      <trkpt lat="43.65896" lon="5.74083">
        <ele>318.39999389648</ele>
        <time>2013-01-19T10:29:49.000Z</time>
      </trkpt>
      <trkpt lat="43.65946" lon="5.7407">
        <ele>317.39999389648</ele>
        <time>2013-01-19T10:29:57.000Z</time>
      </trkpt>
      <trkpt lat="43.65994" lon="5.74053">
        <ele>316</ele>
        <time>2013-01-19T10:30:04.000Z</time>
      </trkpt>
      <trkpt lat="43.66038" lon="5.7403">
        <ele>313.60000610352</ele>
        <time>2013-01-19T10:30:11.000Z</time>
      </trkpt>
      <trkpt lat="43.66084" lon="5.74026">
        <ele>311.39999389648</ele>
        <time>2013-01-19T10:30:18.000Z</time>
      </trkpt>
      <trkpt lat="43.66129" lon="5.74023">
        <ele>310</ele>
        <time>2013-01-19T10:30:26.000Z</time>
      </trkpt>
      <trkpt lat="43.66175" lon="5.74019">
        <ele>308.39999389648</ele>
        <time>2013-01-19T10:30:34.000Z</time>
      </trkpt>
      <trkpt lat="43.66224" lon="5.74019">
        <ele>307</ele>
        <time>2013-01-19T10:30:42.000Z</time>
      </trkpt>
      <trkpt lat="43.66272" lon="5.7402">
        <ele>305.39999389648</ele>
        <time>2013-01-19T10:30:50.000Z</time>
      </trkpt>
      <trkpt lat="43.66315" lon="5.73996">
        <ele>301</ele>
        <time>2013-01-19T10:30:57.000Z</time>
      </trkpt>
      <trkpt lat="43.66349" lon="5.73955">
        <ele>301.60000610352</ele>
        <time>2013-01-19T10:31:04.000Z</time>
      </trkpt>
      <trkpt lat="43.66391" lon="5.73918">
        <ele>301.60000610352</ele>
        <time>2013-01-19T10:31:13.000Z</time>
      </trkpt>
      <trkpt lat="43.6644" lon="5.73897">
        <ele>300</ele>
        <time>2013-01-19T10:31:22.000Z</time>
      </trkpt>
      <trkpt lat="43.66484" lon="5.73873">
        <ele>297.79998779297</ele>
        <time>2013-01-19T10:31:30.000Z</time>
      </trkpt>
      <trkpt lat="43.66529" lon="5.73852">
        <ele>295.79998779297</ele>
        <time>2013-01-19T10:31:38.000Z</time>
      </trkpt>
      <trkpt lat="43.66571" lon="5.73821">
        <ele>293.39999389648</ele>
        <time>2013-01-19T10:31:46.000Z</time>
      </trkpt>
      <trkpt lat="43.66613" lon="5.73794">
        <ele>293.60000610352</ele>
        <time>2013-01-19T10:31:53.000Z</time>
      </trkpt>
      <trkpt lat="43.66654" lon="5.73765">
        <ele>292.20001220703</ele>
        <time>2013-01-19T10:32:00.000Z</time>
      </trkpt>
      <trkpt lat="43.66699" lon="5.73732">
        <ele>290.39999389648</ele>
        <time>2013-01-19T10:32:08.000Z</time>
      </trkpt>
      <trkpt lat="43.66744" lon="5.73701">
        <ele>289.39999389648</ele>
        <time>2013-01-19T10:32:17.000Z</time>
      </trkpt>
      <trkpt lat="43.66789" lon="5.73677">
        <ele>288.20001220703</ele>
        <time>2013-01-19T10:32:26.000Z</time>
      </trkpt>
      <trkpt lat="43.66836" lon="5.73662">
        <ele>287</ele>
        <time>2013-01-19T10:32:39.000Z</time>
      </trkpt>
      <trkpt lat="43.66879" lon="5.73635">
        <ele>287.20001220703</ele>
        <time>2013-01-19T10:32:51.000Z</time>
      </trkpt>
      <trkpt lat="43.6692" lon="5.73609">
        <ele>287.60000610352</ele>
        <time>2013-01-19T10:33:06.000Z</time>
      </trkpt>
      <trkpt lat="43.66965" lon="5.73591">
        <ele>286.79998779297</ele>
        <time>2013-01-19T10:33:32.000Z</time>
      </trkpt>
      <trkpt lat="43.67009" lon="5.73567">
        <ele>285.79998779297</ele>
        <time>2013-01-19T10:33:53.000Z</time>
      </trkpt>
      <trkpt lat="43.67054" lon="5.73543">
        <ele>284.39999389648</ele>
        <time>2013-01-19T10:34:02.000Z</time>
      </trkpt>
      <trkpt lat="43.67101" lon="5.73512">
        <ele>283.20001220703</ele>
        <time>2013-01-19T10:34:10.000Z</time>
      </trkpt>
      <trkpt lat="43.67146" lon="5.73474">
        <ele>280.79998779297</ele>
        <time>2013-01-19T10:34:17.000Z</time>
      </trkpt>
      <trkpt lat="43.67193" lon="5.73457">
        <ele>277.60000610352</ele>
        <time>2013-01-19T10:34:24.000Z</time>
      </trkpt>
      <trkpt lat="43.67226" lon="5.73406">
        <ele>276.20001220703</ele>
        <time>2013-01-19T10:34:32.000Z</time>
      </trkpt>
      <trkpt lat="43.67259" lon="5.73361">
        <ele>276.79998779297</ele>
        <time>2013-01-19T10:34:41.000Z</time>
      </trkpt>
      <trkpt lat="43.6729" lon="5.73306">
        <ele>275.79998779297</ele>
        <time>2013-01-19T10:34:49.000Z</time>
      </trkpt>
      <trkpt lat="43.67312" lon="5.73244">
        <ele>274.79998779297</ele>
        <time>2013-01-19T10:34:57.000Z</time>
      </trkpt>
      <trkpt lat="43.67334" lon="5.73182">
        <ele>276.39999389648</ele>
        <time>2013-01-19T10:35:05.000Z</time>
      </trkpt>
      <trkpt lat="43.67372" lon="5.73138">
        <ele>276.60000610352</ele>
        <time>2013-01-19T10:35:13.000Z</time>
      </trkpt>
      <trkpt lat="43.67412" lon="5.73099">
        <ele>276.60000610352</ele>
        <time>2013-01-19T10:35:21.000Z</time>
      </trkpt>
      <trkpt lat="43.67447" lon="5.73053">
        <ele>276.79998779297</ele>
        <time>2013-01-19T10:35:29.000Z</time>
      </trkpt>
      <trkpt lat="43.67482" lon="5.73007">
        <ele>276.79998779297</ele>
        <time>2013-01-19T10:35:38.000Z</time>
      </trkpt>
      <trkpt lat="43.67519" lon="5.72962">
        <ele>275.79998779297</ele>
        <time>2013-01-19T10:35:51.000Z</time>
      </trkpt>
      <trkpt lat="43.67555" lon="5.72917">
        <ele>275.20001220703</ele>
        <time>2013-01-19T10:36:04.000Z</time>
      </trkpt>
      <trkpt lat="43.67546" lon="5.72851">
        <ele>275.79998779297</ele>
        <time>2013-01-19T10:36:15.000Z</time>
      </trkpt>
      <trkpt lat="43.67537" lon="5.72783">
        <ele>276.39999389648</ele>
        <time>2013-01-19T10:36:28.000Z</time>
      </trkpt>
      <trkpt lat="43.67546" lon="5.72719">
        <ele>276.20001220703</ele>
        <time>2013-01-19T10:36:41.000Z</time>
      </trkpt>
      <trkpt lat="43.67573" lon="5.72667">
        <ele>274.39999389648</ele>
        <time>2013-01-19T10:36:53.000Z</time>
      </trkpt>
      <trkpt lat="43.67614" lon="5.72641">
        <ele>271.20001220703</ele>
        <time>2013-01-19T10:37:02.000Z</time>
      </trkpt>
      <trkpt lat="43.67629" lon="5.72579">
        <ele>270.60000610352</ele>
        <time>2013-01-19T10:37:11.000Z</time>
      </trkpt>
      <trkpt lat="43.67599" lon="5.72533">
        <ele>272.39999389648</ele>
        <time>2013-01-19T10:37:20.000Z</time>
      </trkpt>
      <trkpt lat="43.67584" lon="5.72467">
        <ele>274.39999389648</ele>
        <time>2013-01-19T10:37:30.000Z</time>
      </trkpt>
      <trkpt lat="43.67594" lon="5.724">
        <ele>276.60000610352</ele>
        <time>2013-01-19T10:37:40.000Z</time>
      </trkpt>
      <trkpt lat="43.67617" lon="5.72346">
        <ele>276.20001220703</ele>
        <time>2013-01-19T10:37:48.000Z</time>
      </trkpt>
      <trkpt lat="43.67648" lon="5.72294">
        <ele>272</ele>
        <time>2013-01-19T10:37:57.000Z</time>
      </trkpt>
      <trkpt lat="43.67657" lon="5.72233">
        <ele>272.20001220703</ele>
        <time>2013-01-19T10:38:07.000Z</time>
      </trkpt>
      <trkpt lat="43.67652" lon="5.72175">
        <ele>276.39999389648</ele>
        <time>2013-01-19T10:38:29.000Z</time>
      </trkpt>
      <trkpt lat="43.67698" lon="5.72145">
        <ele>273.39999389648</ele>
        <time>2013-01-19T10:39:11.000Z</time>
      </trkpt>
      <trkpt lat="43.67738" lon="5.72103">
        <ele>271</ele>
        <time>2013-01-19T10:39:24.000Z</time>
      </trkpt>
      <trkpt lat="43.67779" lon="5.72068">
        <ele>268.79998779297</ele>
        <time>2013-01-19T10:39:37.000Z</time>
      </trkpt>
      <trkpt lat="43.67799" lon="5.72006">
        <ele>269.79998779297</ele>
        <time>2013-01-19T10:39:51.000Z</time>
      </trkpt>
      <trkpt lat="43.67822" lon="5.71948">
        <ele>269.60000610352</ele>
        <time>2013-01-19T10:40:06.000Z</time>
      </trkpt>
      <trkpt lat="43.67832" lon="5.71881">
        <ele>271.39999389648</ele>
        <time>2013-01-19T10:40:22.000Z</time>
      </trkpt>
      <trkpt lat="43.67855" lon="5.71827">
        <ele>270.79998779297</ele>
        <time>2013-01-19T10:40:32.000Z</time>
      </trkpt>
      <trkpt lat="43.67885" lon="5.71776">
        <ele>268.60000610352</ele>
        <time>2013-01-19T10:40:41.000Z</time>
      </trkpt>
      <trkpt lat="43.67909" lon="5.71721">
        <ele>267</ele>
        <time>2013-01-19T10:40:49.000Z</time>
      </trkpt>
      <trkpt lat="43.67939" lon="5.71669">
        <ele>267</ele>
        <time>2013-01-19T10:40:58.000Z</time>
      </trkpt>
      <trkpt lat="43.67963" lon="5.71613">
        <ele>269.60000610352</ele>
        <time>2013-01-19T10:41:07.000Z</time>
      </trkpt>
      <trkpt lat="43.67987" lon="5.71558">
        <ele>270.39999389648</ele>
        <time>2013-01-19T10:41:16.000Z</time>
      </trkpt>
      <trkpt lat="43.68019" lon="5.7151">
        <ele>269.79998779297</ele>
        <time>2013-01-19T10:41:25.000Z</time>
      </trkpt>
      <trkpt lat="43.68048" lon="5.71459">
        <ele>267.39999389648</ele>
        <time>2013-01-19T10:41:34.000Z</time>
      </trkpt>
      <trkpt lat="43.68077" lon="5.71404">
        <ele>265.39999389648</ele>
        <time>2013-01-19T10:41:44.000Z</time>
      </trkpt>
      <trkpt lat="43.6811" lon="5.71363">
        <ele>266.60000610352</ele>
        <time>2013-01-19T10:41:53.000Z</time>
      </trkpt>
      <trkpt lat="43.68148" lon="5.71323">
        <ele>267.20001220703</ele>
        <time>2013-01-19T10:42:03.000Z</time>
      </trkpt>
      <trkpt lat="43.68179" lon="5.71272">
        <ele>268.60000610352</ele>
        <time>2013-01-19T10:42:13.000Z</time>
      </trkpt>
      <trkpt lat="43.68221" lon="5.71242">
        <ele>264.39999389648</ele>
        <time>2013-01-19T10:42:23.000Z</time>
      </trkpt>
      <trkpt lat="43.68254" lon="5.71198">
        <ele>261</ele>
        <time>2013-01-19T10:42:33.000Z</time>
      </trkpt>
      <trkpt lat="43.68288" lon="5.71153">
        <ele>261.20001220703</ele>
        <time>2013-01-19T10:42:42.000Z</time>
      </trkpt>
      <trkpt lat="43.68321" lon="5.71107">
        <ele>259.79998779297</ele>
        <time>2013-01-19T10:42:51.000Z</time>
      </trkpt>
      <trkpt lat="43.68356" lon="5.7106">
        <ele>259.60000610352</ele>
        <time>2013-01-19T10:43:01.000Z</time>
      </trkpt>
      <trkpt lat="43.68388" lon="5.71016">
        <ele>259.79998779297</ele>
        <time>2013-01-19T10:43:10.000Z</time>
      </trkpt>
      <trkpt lat="43.68422" lon="5.70976">
        <ele>259.60000610352</ele>
        <time>2013-01-19T10:43:19.000Z</time>
      </trkpt>
      <trkpt lat="43.6846" lon="5.70933">
        <ele>260.20001220703</ele>
        <time>2013-01-19T10:43:29.000Z</time>
      </trkpt>
      <trkpt lat="43.68496" lon="5.70891">
        <ele>260.79998779297</ele>
        <time>2013-01-19T10:43:39.000Z</time>
      </trkpt>
      <trkpt lat="43.68505" lon="5.70839">
        <ele>262.39999389648</ele>
        <time>2013-01-19T10:43:52.000Z</time>
      </trkpt>
      <trkpt lat="43.68532" lon="5.70783">
        <ele>263.39999389648</ele>
        <time>2013-01-19T10:44:10.000Z</time>
      </trkpt>
      <trkpt lat="43.68502" lon="5.70742">
        <ele>268.60000610352</ele>
        <time>2013-01-19T10:44:30.000Z</time>
      </trkpt>
      <trkpt lat="43.68456" lon="5.70744">
        <ele>270.79998779297</ele>
        <time>2013-01-19T10:44:47.000Z</time>
      </trkpt>
      <trkpt lat="43.68413" lon="5.70724">
        <ele>274</ele>
        <time>2013-01-19T10:45:02.000Z</time>
      </trkpt>
      <trkpt lat="43.68379" lon="5.70696">
        <ele>279</ele>
        <time>2013-01-19T10:45:23.000Z</time>
      </trkpt>
      <trkpt lat="43.68377" lon="5.7063">
        <ele>286.39999389648</ele>
        <time>2013-01-19T10:45:46.000Z</time>
      </trkpt>
      <trkpt lat="43.68369" lon="5.70601">
        <ele>290.60000610352</ele>
        <time>2013-01-19T10:46:41.000Z</time>
      </trkpt>
      <trkpt lat="43.68329" lon="5.70628">
        <ele>294</ele>
        <time>2013-01-19T10:47:07.000Z</time>
      </trkpt>
      <trkpt lat="43.68303" lon="5.70616">
        <ele>301.79998779297</ele>
        <time>2013-01-19T10:47:33.000Z</time>
      </trkpt>
      <trkpt lat="43.68305" lon="5.70588">
        <ele>306</ele>
        <time>2013-01-19T10:47:58.000Z</time>
      </trkpt>
      <trkpt lat="43.68303" lon="5.70566">
        <ele>309.60000610352</ele>
        <time>2013-01-19T10:48:25.000Z</time>
      </trkpt>
      <trkpt lat="43.68289" lon="5.70501">
        <ele>322.60000610352</ele>
        <time>2013-01-19T10:48:59.000Z</time>
      </trkpt>
      <trkpt lat="43.68259" lon="5.70451">
        <ele>336.39999389648</ele>
        <time>2013-01-19T10:49:30.000Z</time>
      </trkpt>
      <trkpt lat="43.68234" lon="5.70394">
        <ele>348.79998779297</ele>
        <time>2013-01-19T10:50:02.000Z</time>
      </trkpt>
      <trkpt lat="43.68219" lon="5.70376">
        <ele>355.60000610352</ele>
        <time>2013-01-19T10:50:34.000Z</time>
      </trkpt>
      <trkpt lat="43.68216" lon="5.7044">
        <ele>345.79998779297</ele>
        <time>2013-01-19T10:50:58.000Z</time>
      </trkpt>
      <trkpt lat="43.68218" lon="5.70502">
        <ele>338</ele>
        <time>2013-01-19T10:51:22.000Z</time>
      </trkpt>
      <trkpt lat="43.68188" lon="5.7046">
        <ele>348</ele>
        <time>2013-01-19T10:51:49.000Z</time>
      </trkpt>
      <trkpt lat="43.68173" lon="5.70398">
        <ele>361.79998779297</ele>
        <time>2013-01-19T10:52:21.000Z</time>
      </trkpt>
      <trkpt lat="43.68168" lon="5.7033">
        <ele>375.39999389648</ele>
        <time>2013-01-19T10:52:53.000Z</time>
      </trkpt>
      <trkpt lat="43.68189" lon="5.70272">
        <ele>384.60000610352</ele>
        <time>2013-01-19T10:54:27.000Z</time>
      </trkpt>
      <trkpt lat="43.68227" lon="5.70235">
        <ele>384.39999389648</ele>
        <time>2013-01-19T10:54:47.000Z</time>
      </trkpt>
      <trkpt lat="43.68256" lon="5.70182">
        <ele>389.39999389648</ele>
        <time>2013-01-19T10:55:07.000Z</time>
      </trkpt>
      <trkpt lat="43.68284" lon="5.70126">
        <ele>392.60000610352</ele>
        <time>2013-01-19T10:55:34.000Z</time>
      </trkpt>
      <trkpt lat="43.68311" lon="5.70071">
        <ele>394</ele>
        <time>2013-01-19T10:55:49.000Z</time>
      </trkpt>
      <trkpt lat="43.68337" lon="5.70017">
        <ele>395.20001220703</ele>
        <time>2013-01-19T10:56:06.000Z</time>
      </trkpt>
      <trkpt lat="43.68342" lon="5.69952">
        <ele>398.79998779297</ele>
        <time>2013-01-19T10:56:23.000Z</time>
      </trkpt>
      <trkpt lat="43.68359" lon="5.69887">
        <ele>400.20001220703</ele>
        <time>2013-01-19T10:56:38.000Z</time>
      </trkpt>
      <trkpt lat="43.68384" lon="5.69832">
        <ele>405</ele>
        <time>2013-01-19T10:56:55.000Z</time>
      </trkpt>
      <trkpt lat="43.6841" lon="5.69773">
        <ele>408.60000610352</ele>
        <time>2013-01-19T10:57:20.000Z</time>
      </trkpt>
      <trkpt lat="43.68427" lon="5.69712">
        <ele>409.79998779297</ele>
        <time>2013-01-19T10:57:35.000Z</time>
      </trkpt>
      <trkpt lat="43.68453" lon="5.69654">
        <ele>406.79998779297</ele>
        <time>2013-01-19T10:57:48.000Z</time>
      </trkpt>
      <trkpt lat="43.68464" lon="5.69588">
        <ele>405.39999389648</ele>
        <time>2013-01-19T10:57:58.000Z</time>
      </trkpt>
      <trkpt lat="43.68482" lon="5.69525">
        <ele>402.79998779297</ele>
        <time>2013-01-19T10:58:07.000Z</time>
      </trkpt>
      <trkpt lat="43.68491" lon="5.69458">
        <ele>401.20001220703</ele>
        <time>2013-01-19T10:58:18.000Z</time>
      </trkpt>
      <trkpt lat="43.68478" lon="5.69431">
        <ele>399.79998779297</ele>
        <time>2013-01-19T10:58:37.000Z</time>
      </trkpt>
      <trkpt lat="43.68448" lon="5.69469">
        <ele>401.79998779297</ele>
        <time>2013-01-19T10:58:57.000Z</time>
      </trkpt>
      <trkpt lat="43.68417" lon="5.69504">
        <ele>407.20001220703</ele>
        <time>2013-01-19T10:59:19.000Z</time>
      </trkpt>
      <trkpt lat="43.68392" lon="5.69559">
        <ele>408.39999389648</ele>
        <time>2013-01-19T10:59:48.000Z</time>
      </trkpt>
      <trkpt lat="43.68377" lon="5.6962">
        <ele>413.39999389648</ele>
        <time>2013-01-19T11:00:20.000Z</time>
      </trkpt>
      <trkpt lat="43.68362" lon="5.69682">
        <ele>419</ele>
        <time>2013-01-19T11:00:45.000Z</time>
      </trkpt>
      <trkpt lat="43.68336" lon="5.69735">
        <ele>422.20001220703</ele>
        <time>2013-01-19T11:01:00.000Z</time>
      </trkpt>
      <trkpt lat="43.68326" lon="5.69791">
        <ele>417.79998779297</ele>
        <time>2013-01-19T11:01:11.000Z</time>
      </trkpt>
      <trkpt lat="43.68297" lon="5.69839">
        <ele>410.60000610352</ele>
        <time>2013-01-19T11:01:20.000Z</time>
      </trkpt>
      <trkpt lat="43.68281" lon="5.69901">
        <ele>409.60000610352</ele>
        <time>2013-01-19T11:01:29.000Z</time>
      </trkpt>
      <trkpt lat="43.68262" lon="5.69961">
        <ele>414</ele>
        <time>2013-01-19T11:01:39.000Z</time>
      </trkpt>
      <trkpt lat="43.68226" lon="5.70002">
        <ele>419</ele>
        <time>2013-01-19T11:01:50.000Z</time>
      </trkpt>
      <trkpt lat="43.68188" lon="5.70021">
        <ele>420</ele>
        <time>2013-01-19T11:05:04.000Z</time>
      </trkpt>
      <trkpt lat="43.68143" lon="5.70026">
        <ele>423.20001220703</ele>
        <time>2013-01-19T11:05:22.000Z</time>
      </trkpt>
      <trkpt lat="43.68097" lon="5.70004">
        <ele>424.39999389648</ele>
        <time>2013-01-19T11:05:36.000Z</time>
      </trkpt>
      <trkpt lat="43.68052" lon="5.69992">
        <ele>421.39999389648</ele>
        <time>2013-01-19T11:05:47.000Z</time>
      </trkpt>
      <trkpt lat="43.68006" lon="5.70001">
        <ele>418.60000610352</ele>
        <time>2013-01-19T11:05:59.000Z</time>
      </trkpt>
      <trkpt lat="43.67969" lon="5.70045">
        <ele>420.60000610352</ele>
        <time>2013-01-19T11:06:10.000Z</time>
      </trkpt>
      <trkpt lat="43.6793" lon="5.70073">
        <ele>421.39999389648</ele>
        <time>2013-01-19T11:06:20.000Z</time>
      </trkpt>
      <trkpt lat="43.67889" lon="5.701">
        <ele>421.79998779297</ele>
        <time>2013-01-19T11:06:31.000Z</time>
      </trkpt>
      <trkpt lat="43.67865" lon="5.70059">
        <ele>415.60000610352</ele>
        <time>2013-01-19T11:06:41.000Z</time>
      </trkpt>
      <trkpt lat="43.67823" lon="5.70046">
        <ele>412</ele>
        <time>2013-01-19T11:06:50.000Z</time>
      </trkpt>
      <trkpt lat="43.67843" lon="5.69989">
        <ele>407.79998779297</ele>
        <time>2013-01-19T11:07:00.000Z</time>
      </trkpt>
      <trkpt lat="43.67813" lon="5.69944">
        <ele>405.39999389648</ele>
        <time>2013-01-19T11:07:11.000Z</time>
      </trkpt>
      <trkpt lat="43.67785" lon="5.69895">
        <ele>402.39999389648</ele>
        <time>2013-01-19T11:07:20.000Z</time>
      </trkpt>
      <trkpt lat="43.67761" lon="5.69842">
        <ele>400.20001220703</ele>
        <time>2013-01-19T11:07:27.000Z</time>
      </trkpt>
      <trkpt lat="43.67737" lon="5.69784">
        <ele>398.39999389648</ele>
        <time>2013-01-19T11:07:33.000Z</time>
      </trkpt>
      <trkpt lat="43.67717" lon="5.69721">
        <ele>398.79998779297</ele>
        <time>2013-01-19T11:07:40.000Z</time>
      </trkpt>
      <trkpt lat="43.67686" lon="5.69679">
        <ele>400.39999389648</ele>
        <time>2013-01-19T11:08:00.000Z</time>
      </trkpt>
      <trkpt lat="43.67664" lon="5.69618">
        <ele>399.20001220703</ele>
        <time>2013-01-19T11:08:11.000Z</time>
      </trkpt>
      <trkpt lat="43.67638" lon="5.69565">
        <ele>396.60000610352</ele>
        <time>2013-01-19T11:08:21.000Z</time>
      </trkpt>
      <trkpt lat="43.67606" lon="5.69518">
        <ele>393.20001220703</ele>
        <time>2013-01-19T11:08:30.000Z</time>
      </trkpt>
      <trkpt lat="43.67578" lon="5.69466">
        <ele>390.20001220703</ele>
        <time>2013-01-19T11:08:38.000Z</time>
      </trkpt>
      <trkpt lat="43.67549" lon="5.69407">
        <ele>387.60000610352</ele>
        <time>2013-01-19T11:08:45.000Z</time>
      </trkpt>
      <trkpt lat="43.67519" lon="5.6935">
        <ele>385.39999389648</ele>
        <time>2013-01-19T11:08:52.000Z</time>
      </trkpt>
      <trkpt lat="43.67477" lon="5.69325">
        <ele>382.60000610352</ele>
        <time>2013-01-19T11:08:59.000Z</time>
      </trkpt>
      <trkpt lat="43.67431" lon="5.69302">
        <ele>381.39999389648</ele>
        <time>2013-01-19T11:09:06.000Z</time>
      </trkpt>
      <trkpt lat="43.67399" lon="5.69261">
        <ele>381.20001220703</ele>
        <time>2013-01-19T11:09:15.000Z</time>
      </trkpt>
      <trkpt lat="43.6737" lon="5.69212">
        <ele>382</ele>
        <time>2013-01-19T11:09:22.000Z</time>
      </trkpt>
      <trkpt lat="43.67343" lon="5.69157">
        <ele>383.20001220703</ele>
        <time>2013-01-19T11:09:30.000Z</time>
      </trkpt>
      <trkpt lat="43.6731" lon="5.6911">
        <ele>387.60000610352</ele>
        <time>2013-01-19T11:09:42.000Z</time>
      </trkpt>
      <trkpt lat="43.67279" lon="5.69065">
        <ele>392.20001220703</ele>
        <time>2013-01-19T11:09:56.000Z</time>
      </trkpt>
      <trkpt lat="43.67253" lon="5.69009">
        <ele>396.39999389648</ele>
        <time>2013-01-19T11:10:10.000Z</time>
      </trkpt>
      <trkpt lat="43.67234" lon="5.68948">
        <ele>397.60000610352</ele>
        <time>2013-01-19T11:10:26.000Z</time>
      </trkpt>
      <trkpt lat="43.67205" lon="5.68893">
        <ele>397.60000610352</ele>
        <time>2013-01-19T11:10:43.000Z</time>
      </trkpt>
      <trkpt lat="43.67167" lon="5.68853">
        <ele>398.20001220703</ele>
        <time>2013-01-19T11:10:54.000Z</time>
      </trkpt>
      <trkpt lat="43.67133" lon="5.6881">
        <ele>400.20001220703</ele>
        <time>2013-01-19T11:11:05.000Z</time>
      </trkpt>
      <trkpt lat="43.671" lon="5.68766">
        <ele>402.39999389648</ele>
        <time>2013-01-19T11:11:17.000Z</time>
      </trkpt>
      <trkpt lat="43.67059" lon="5.68735">
        <ele>402.79998779297</ele>
        <time>2013-01-19T11:11:29.000Z</time>
      </trkpt>
      <trkpt lat="43.67019" lon="5.68699">
        <ele>402.79998779297</ele>
        <time>2013-01-19T11:11:41.000Z</time>
      </trkpt>
      <trkpt lat="43.6698" lon="5.68665">
        <ele>403.60000610352</ele>
        <time>2013-01-19T11:11:53.000Z</time>
      </trkpt>
      <trkpt lat="43.66949" lon="5.68618">
        <ele>405.20001220703</ele>
        <time>2013-01-19T11:12:05.000Z</time>
      </trkpt>
      <trkpt lat="43.6692" lon="5.68566">
        <ele>407.60000610352</ele>
        <time>2013-01-19T11:12:16.000Z</time>
      </trkpt>
      <trkpt lat="43.66884" lon="5.6852">
        <ele>408.39999389648</ele>
        <time>2013-01-19T11:12:25.000Z</time>
      </trkpt>
      <trkpt lat="43.66851" lon="5.68474">
        <ele>407.79998779297</ele>
        <time>2013-01-19T11:12:33.000Z</time>
      </trkpt>
      <trkpt lat="43.6682" lon="5.68432">
        <ele>406.79998779297</ele>
        <time>2013-01-19T11:12:42.000Z</time>
      </trkpt>
      <trkpt lat="43.66795" lon="5.68409">
        <ele>407.39999389648</ele>
        <time>2013-01-19T11:14:46.000Z</time>
      </trkpt>
      <trkpt lat="43.66754" lon="5.6843">
        <ele>409</ele>
        <time>2013-01-19T11:14:57.000Z</time>
      </trkpt>
      <trkpt lat="43.66709" lon="5.68412">
        <ele>409.39999389648</ele>
        <time>2013-01-19T11:15:08.000Z</time>
      </trkpt>
      <trkpt lat="43.66672" lon="5.68374">
        <ele>411.20001220703</ele>
        <time>2013-01-19T11:15:18.000Z</time>
      </trkpt>
      <trkpt lat="43.66633" lon="5.68333">
        <ele>413</ele>
        <time>2013-01-19T11:15:29.000Z</time>
      </trkpt>
      <trkpt lat="43.66594" lon="5.68292">
        <ele>413.39999389648</ele>
        <time>2013-01-19T11:15:40.000Z</time>
      </trkpt>
      <trkpt lat="43.66559" lon="5.68254">
        <ele>413.79998779297</ele>
        <time>2013-01-19T11:15:51.000Z</time>
      </trkpt>
      <trkpt lat="43.66525" lon="5.68214">
        <ele>414.79998779297</ele>
        <time>2013-01-19T11:16:02.000Z</time>
      </trkpt>
      <trkpt lat="43.6649" lon="5.68171">
        <ele>415</ele>
        <time>2013-01-19T11:16:12.000Z</time>
      </trkpt>
      <trkpt lat="43.66447" lon="5.6814">
        <ele>411</ele>
        <time>2013-01-19T11:16:19.000Z</time>
      </trkpt>
      <trkpt lat="43.66409" lon="5.68104">
        <ele>407</ele>
        <time>2013-01-19T11:16:25.000Z</time>
      </trkpt>
      <trkpt lat="43.66359" lon="5.68081">
        <ele>404.20001220703</ele>
        <time>2013-01-19T11:16:31.000Z</time>
      </trkpt>
      <trkpt lat="43.66321" lon="5.68039">
        <ele>402.39999389648</ele>
        <time>2013-01-19T11:16:37.000Z</time>
      </trkpt>
      <trkpt lat="43.66282" lon="5.67996">
        <ele>401.79998779297</ele>
        <time>2013-01-19T11:16:44.000Z</time>
      </trkpt>
      <trkpt lat="43.66247" lon="5.67955">
        <ele>400.39999389648</ele>
        <time>2013-01-19T11:16:51.000Z</time>
      </trkpt>
      <trkpt lat="43.6621" lon="5.67912">
        <ele>399.79998779297</ele>
        <time>2013-01-19T11:17:00.000Z</time>
      </trkpt>
      <trkpt lat="43.66176" lon="5.67869">
        <ele>400.20001220703</ele>
        <time>2013-01-19T11:17:09.000Z</time>
      </trkpt>
      <trkpt lat="43.66148" lon="5.67815">
        <ele>399.60000610352</ele>
        <time>2013-01-19T11:17:18.000Z</time>
      </trkpt>
      <trkpt lat="43.66121" lon="5.67764">
        <ele>398.39999389648</ele>
        <time>2013-01-19T11:17:26.000Z</time>
      </trkpt>
      <trkpt lat="43.66084" lon="5.67718">
        <ele>397.60000610352</ele>
        <time>2013-01-19T11:17:35.000Z</time>
      </trkpt>
      <trkpt lat="43.66042" lon="5.67686">
        <ele>396.60000610352</ele>
        <time>2013-01-19T11:17:45.000Z</time>
      </trkpt>
      <trkpt lat="43.66005" lon="5.67643">
        <ele>394.79998779297</ele>
        <time>2013-01-19T11:17:53.000Z</time>
      </trkpt>
      <trkpt lat="43.65968" lon="5.67601">
        <ele>393.60000610352</ele>
        <time>2013-01-19T11:18:01.000Z</time>
      </trkpt>
      <trkpt lat="43.65937" lon="5.67555">
        <ele>393</ele>
        <time>2013-01-19T11:18:09.000Z</time>
      </trkpt>
      <trkpt lat="43.65906" lon="5.67509">
        <ele>393.39999389648</ele>
        <time>2013-01-19T11:18:16.000Z</time>
      </trkpt>
      <trkpt lat="43.65876" lon="5.6746">
        <ele>393.20001220703</ele>
        <time>2013-01-19T11:18:23.000Z</time>
      </trkpt>
      <trkpt lat="43.65844" lon="5.67413">
        <ele>392.39999389648</ele>
        <time>2013-01-19T11:18:31.000Z</time>
      </trkpt>
      <trkpt lat="43.6581" lon="5.67362">
        <ele>389.60000610352</ele>
        <time>2013-01-19T11:18:38.000Z</time>
      </trkpt>
      <trkpt lat="43.65776" lon="5.6731">
        <ele>386.60000610352</ele>
        <time>2013-01-19T11:18:44.000Z</time>
      </trkpt>
      <trkpt lat="43.65743" lon="5.67259">
        <ele>383.39999389648</ele>
        <time>2013-01-19T11:18:50.000Z</time>
      </trkpt>
      <trkpt lat="43.65711" lon="5.67211">
        <ele>382.39999389648</ele>
        <time>2013-01-19T11:18:56.000Z</time>
      </trkpt>
      <trkpt lat="43.65675" lon="5.67161">
        <ele>381.79998779297</ele>
        <time>2013-01-19T11:19:02.000Z</time>
      </trkpt>
      <trkpt lat="43.6564" lon="5.67108">
        <ele>379.60000610352</ele>
        <time>2013-01-19T11:19:08.000Z</time>
      </trkpt>
      <trkpt lat="43.65622" lon="5.67046">
        <ele>376.79998779297</ele>
        <time>2013-01-19T11:19:14.000Z</time>
      </trkpt>
      <trkpt lat="43.65597" lon="5.66984">
        <ele>375</ele>
        <time>2013-01-19T11:19:20.000Z</time>
      </trkpt>
      <trkpt lat="43.65572" lon="5.66927">
        <ele>372.39999389648</ele>
        <time>2013-01-19T11:19:26.000Z</time>
      </trkpt>
      <trkpt lat="43.65535" lon="5.66884">
        <ele>370.60000610352</ele>
        <time>2013-01-19T11:19:32.000Z</time>
      </trkpt>
      <trkpt lat="43.65486" lon="5.66897">
        <ele>370.20001220703</ele>
        <time>2013-01-19T11:19:38.000Z</time>
      </trkpt>
      <trkpt lat="43.65438" lon="5.66878">
        <ele>368</ele>
        <time>2013-01-19T11:19:44.000Z</time>
      </trkpt>
      <trkpt lat="43.65393" lon="5.66855">
        <ele>366.39999389648</ele>
        <time>2013-01-19T11:19:50.000Z</time>
      </trkpt>
      <trkpt lat="43.65349" lon="5.66835">
        <ele>364.39999389648</ele>
        <time>2013-01-19T11:19:56.000Z</time>
      </trkpt>
      <trkpt lat="43.65304" lon="5.6682">
        <ele>363</ele>
        <time>2013-01-19T11:20:02.000Z</time>
      </trkpt>
      <trkpt lat="43.6526" lon="5.66801">
        <ele>361.39999389648</ele>
        <time>2013-01-19T11:20:08.000Z</time>
      </trkpt>
      <trkpt lat="43.65225" lon="5.66762">
        <ele>360.60000610352</ele>
        <time>2013-01-19T11:20:14.000Z</time>
      </trkpt>
      <trkpt lat="43.65196" lon="5.66706">
        <ele>359.79998779297</ele>
        <time>2013-01-19T11:20:21.000Z</time>
      </trkpt>
      <trkpt lat="43.65158" lon="5.66657">
        <ele>358.39999389648</ele>
        <time>2013-01-19T11:20:28.000Z</time>
      </trkpt>
      <trkpt lat="43.65121" lon="5.66611">
        <ele>357.20001220703</ele>
        <time>2013-01-19T11:20:35.000Z</time>
      </trkpt>
      <trkpt lat="43.65085" lon="5.66569">
        <ele>357.20001220703</ele>
        <time>2013-01-19T11:20:42.000Z</time>
      </trkpt>
      <trkpt lat="43.65044" lon="5.66538">
        <ele>357.39999389648</ele>
        <time>2013-01-19T11:20:49.000Z</time>
      </trkpt>
      <trkpt lat="43.64999" lon="5.66507">
        <ele>356.79998779297</ele>
        <time>2013-01-19T11:20:57.000Z</time>
      </trkpt>
      <trkpt lat="43.64963" lon="5.66466">
        <ele>356.39999389648</ele>
        <time>2013-01-19T11:21:04.000Z</time>
      </trkpt>
      <trkpt lat="43.6494" lon="5.66403">
        <ele>356.60000610352</ele>
        <time>2013-01-19T11:21:11.000Z</time>
      </trkpt>
      <trkpt lat="43.64921" lon="5.66345">
        <ele>357.60000610352</ele>
        <time>2013-01-19T11:21:17.000Z</time>
      </trkpt>
      <trkpt lat="43.64903" lon="5.66287">
        <ele>357.20001220703</ele>
        <time>2013-01-19T11:21:23.000Z</time>
      </trkpt>
      <trkpt lat="43.64883" lon="5.66229">
        <ele>356.20001220703</ele>
        <time>2013-01-19T11:21:29.000Z</time>
      </trkpt>
      <trkpt lat="43.64855" lon="5.66176">
        <ele>355.39999389648</ele>
        <time>2013-01-19T11:21:35.000Z</time>
      </trkpt>
      <trkpt lat="43.64822" lon="5.66121">
        <ele>354.60000610352</ele>
        <time>2013-01-19T11:21:41.000Z</time>
      </trkpt>
      <trkpt lat="43.64785" lon="5.66073">
        <ele>354.20001220703</ele>
        <time>2013-01-19T11:21:47.000Z</time>
      </trkpt>
      <trkpt lat="43.64743" lon="5.66028">
        <ele>354</ele>
        <time>2013-01-19T11:21:53.000Z</time>
      </trkpt>
      <trkpt lat="43.64704" lon="5.65985">
        <ele>354.20001220703</ele>
        <time>2013-01-19T11:21:59.000Z</time>
      </trkpt>
      <trkpt lat="43.64666" lon="5.6594">
        <ele>354.20001220703</ele>
        <time>2013-01-19T11:22:05.000Z</time>
      </trkpt>
      <trkpt lat="43.64619" lon="5.65934">
        <ele>353.79998779297</ele>
        <time>2013-01-19T11:22:11.000Z</time>
      </trkpt>
      <trkpt lat="43.64569" lon="5.65942">
        <ele>352.60000610352</ele>
        <time>2013-01-19T11:22:18.000Z</time>
      </trkpt>
      <trkpt lat="43.64519" lon="5.65948">
        <ele>348.60000610352</ele>
        <time>2013-01-19T11:22:25.000Z</time>
      </trkpt>
      <trkpt lat="43.64472" lon="5.6592">
        <ele>343.79998779297</ele>
        <time>2013-01-19T11:22:31.000Z</time>
      </trkpt>
      <trkpt lat="43.64432" lon="5.65891">
        <ele>340.60000610352</ele>
        <time>2013-01-19T11:22:36.000Z</time>
      </trkpt>
      <trkpt lat="43.64388" lon="5.65853">
        <ele>339.20001220703</ele>
        <time>2013-01-19T11:22:42.000Z</time>
      </trkpt>
      <trkpt lat="43.64345" lon="5.65828">
        <ele>334.79998779297</ele>
        <time>2013-01-19T11:22:48.000Z</time>
      </trkpt>
      <trkpt lat="43.64297" lon="5.65846">
        <ele>328.20001220703</ele>
        <time>2013-01-19T11:22:55.000Z</time>
      </trkpt>
      <trkpt lat="43.64258" lon="5.65803">
        <ele>326</ele>
        <time>2013-01-19T11:23:01.000Z</time>
      </trkpt>
      <trkpt lat="43.64208" lon="5.65791">
        <ele>323</ele>
        <time>2013-01-19T11:23:06.000Z</time>
      </trkpt>
      <trkpt lat="43.64163" lon="5.65768">
        <ele>320.60000610352</ele>
        <time>2013-01-19T11:23:11.000Z</time>
      </trkpt>
      <trkpt lat="43.64121" lon="5.65735">
        <ele>318.20001220703</ele>
        <time>2013-01-19T11:23:16.000Z</time>
      </trkpt>
      <trkpt lat="43.64079" lon="5.65709">
        <ele>315.60000610352</ele>
        <time>2013-01-19T11:23:21.000Z</time>
      </trkpt>
      <trkpt lat="43.6404" lon="5.65676">
        <ele>314.60000610352</ele>
        <time>2013-01-19T11:23:26.000Z</time>
      </trkpt>
      <trkpt lat="43.63999" lon="5.65634">
        <ele>312</ele>
        <time>2013-01-19T11:23:31.000Z</time>
      </trkpt>
      <trkpt lat="43.63968" lon="5.65583">
        <ele>313.20001220703</ele>
        <time>2013-01-19T11:23:36.000Z</time>
      </trkpt>
      <trkpt lat="43.6394" lon="5.6553">
        <ele>311.20001220703</ele>
        <time>2013-01-19T11:23:41.000Z</time>
      </trkpt>
      <trkpt lat="43.63896" lon="5.65514">
        <ele>308</ele>
        <time>2013-01-19T11:23:46.000Z</time>
      </trkpt>
      <trkpt lat="43.63851" lon="5.65492">
        <ele>306.60000610352</ele>
        <time>2013-01-19T11:23:51.000Z</time>
      </trkpt>
      <trkpt lat="43.63807" lon="5.65465">
        <ele>304.60000610352</ele>
        <time>2013-01-19T11:23:56.000Z</time>
      </trkpt>
      <trkpt lat="43.63776" lon="5.65413">
        <ele>302.60000610352</ele>
        <time>2013-01-19T11:24:02.000Z</time>
      </trkpt>
      <trkpt lat="43.6376" lon="5.65354">
        <ele>300.79998779297</ele>
        <time>2013-01-19T11:24:08.000Z</time>
      </trkpt>
      <trkpt lat="43.63744" lon="5.65299">
        <ele>299.60000610352</ele>
        <time>2013-01-19T11:24:14.000Z</time>
      </trkpt>
      <trkpt lat="43.63708" lon="5.65262">
        <ele>299.39999389648</ele>
        <time>2013-01-19T11:24:19.000Z</time>
      </trkpt>
      <trkpt lat="43.63701" lon="5.65192">
        <ele>301.60000610352</ele>
        <time>2013-01-19T11:24:24.000Z</time>
      </trkpt>
      <trkpt lat="43.63707" lon="5.65126">
        <ele>300.60000610352</ele>
        <time>2013-01-19T11:24:29.000Z</time>
      </trkpt>
      <trkpt lat="43.63703" lon="5.65064">
        <ele>296</ele>
        <time>2013-01-19T11:24:34.000Z</time>
      </trkpt>
      <trkpt lat="43.63669" lon="5.65021">
        <ele>289</ele>
        <time>2013-01-19T11:24:40.000Z</time>
      </trkpt>
      <trkpt lat="43.63641" lon="5.64974">
        <ele>289.39999389648</ele>
        <time>2013-01-19T11:24:46.000Z</time>
      </trkpt>
      <trkpt lat="43.63624" lon="5.64909">
        <ele>289.39999389648</ele>
        <time>2013-01-19T11:24:52.000Z</time>
      </trkpt>
      <trkpt lat="43.63583" lon="5.64883">
        <ele>283.20001220703</ele>
        <time>2013-01-19T11:24:58.000Z</time>
      </trkpt>
      <trkpt lat="43.63573" lon="5.64818">
        <ele>285.79998779297</ele>
        <time>2013-01-19T11:25:04.000Z</time>
      </trkpt>
      <trkpt lat="43.63569" lon="5.64747">
        <ele>285.79998779297</ele>
        <time>2013-01-19T11:25:10.000Z</time>
      </trkpt>
      <trkpt lat="43.63559" lon="5.6468">
        <ele>285.79998779297</ele>
        <time>2013-01-19T11:25:16.000Z</time>
      </trkpt>
      <trkpt lat="43.63558" lon="5.64611">
        <ele>285.20001220703</ele>
        <time>2013-01-19T11:25:22.000Z</time>
      </trkpt>
      <trkpt lat="43.63579" lon="5.64549">
        <ele>281.79998779297</ele>
        <time>2013-01-19T11:25:28.000Z</time>
      </trkpt>
      <trkpt lat="43.63602" lon="5.64489">
        <ele>279</ele>
        <time>2013-01-19T11:25:34.000Z</time>
      </trkpt>
      <trkpt lat="43.63636" lon="5.64447">
        <ele>276.79998779297</ele>
        <time>2013-01-19T11:25:40.000Z</time>
      </trkpt>
      <trkpt lat="43.63683" lon="5.64416">
        <ele>273.79998779297</ele>
        <time>2013-01-19T11:25:47.000Z</time>
      </trkpt>
      <trkpt lat="43.63704" lon="5.64364">
        <ele>274.39999389648</ele>
        <time>2013-01-19T11:25:54.000Z</time>
      </trkpt>
      <trkpt lat="43.6371" lon="5.64301">
        <ele>273.60000610352</ele>
        <time>2013-01-19T11:26:06.000Z</time>
      </trkpt>
    </trkseg>
  </trk>
</gpx>